www.cux-wetter.de
Wetterdaten: Sonntag, 02.03.2008
Datum Zeit Temp. A. Feuchte A. Luftdruck Regen Wind Richtung Richtung Sonnenschein Solar Taupunkt Windchill Windben
02.03.2008 00:00 5,8 C 84 % 996,5 hPa 0,0 l/m 37,5 km/h (5 Bft) W-NW 290 0 min 0 W/m 3,3 C -6,9 C 37,5 km/h (5 Bft)
02.03.2008 00:03 5,9 C 85 % 996,5 hPa 0,0 l/m 30,8 km/h (5 Bft) W-NW 300 0 min 0 W/m 3,6 C -5,3 C 30,8 km/h (5 Bft)
02.03.2008 00:05 5,9 C 85 % 996,5 hPa 0,0 l/m 42,3 km/h (6 Bft) W-NW 295 0 min 0 W/m 3,6 C -7,6 C 42,3 km/h (6 Bft)
02.03.2008 00:08 5,9 C 86 % 996,5 hPa 0,0 l/m 40,2 km/h (6 Bft) W-NW 295 0 min 0 W/m 3,7 C -7,2 C 40,2 km/h (6 Bft)
02.03.2008 00:11 6,0 C 87 % 996,5 hPa 0,0 l/m 32,0 km/h (5 Bft) W-NW 295 0 min 0 W/m 4,0 C -5,4 C 32,0 km/h (5 Bft)
02.03.2008 00:14 6,0 C 88 % 996,5 hPa 0,0 l/m 31,3 km/h (5 Bft) W-NW 295 0 min 0 W/m 4,2 C -5,3 C 31,3 km/h (5 Bft)
02.03.2008 00:18 6,0 C 88 % 996,5 hPa 0,0 l/m 36,3 km/h (5 Bft) W 280 0 min 0 W/m 4,2 C -6,4 C 36,3 km/h (5 Bft)
02.03.2008 00:21 6,0 C 88 % 996,5 hPa 0,0 l/m 35,5 km/h (5 Bft) W-NW 300 0 min 0 W/m 4,2 C -6,2 C 35,5 km/h (5 Bft)
02.03.2008 00:24 6,1 C 89 % 996,5 hPa 0,0 l/m 33,6 km/h (5 Bft) W-NW 295 0 min 0 W/m 4,4 C -5,7 C 33,6 km/h (5 Bft)
02.03.2008 00:27 6,1 C 89 % 995,5 hPa 0,0 l/m 44,4 km/h (6 Bft) W-NW 295 0 min 0 W/m 4,4 C -7,6 C 44,4 km/h (6 Bft)
02.03.2008 00:30 6,1 C 89 % 995,5 hPa 0,0 l/m 32,4 km/h (5 Bft) NW 305 0 min 0 W/m 4,4 C -5,4 C 32,4 km/h (5 Bft)
02.03.2008 00:33 6,1 C 89 % 995,5 hPa 0,0 l/m 37,5 km/h (5 Bft) W-NW 295 0 min 0 W/m 4,4 C -6,4 C 37,5 km/h (5 Bft)
02.03.2008 00:36 6,2 C 90 % 995,5 hPa 0,0 l/m 31,4 km/h (5 Bft) W-NW 290 0 min 0 W/m 4,7 C -5,0 C 31,4 km/h (5 Bft)
02.03.2008 00:39 6,2 C 90 % 995,5 hPa 0,0 l/m 32,4 km/h (5 Bft) W-NW 295 0 min 0 W/m 4,7 C -5,3 C 32,4 km/h (5 Bft)
02.03.2008 00:42 6,2 C 90 % 995,5 hPa 0,0 l/m 27,6 km/h (5 Bft) W 280 0 min 0 W/m 4,7 C -4,1 C 27,6 km/h (5 Bft)
02.03.2008 00:45 6,2 C 90 % 995,5 hPa 0,0 l/m 28,7 km/h (5 Bft) W-NW 285 0 min 0 W/m 4,7 C -4,4 C 28,7 km/h (5 Bft)
02.03.2008 00:48 6,3 C 91 % 995,5 hPa 0,0 l/m 33,5 km/h (5 Bft) W-NW 295 0 min 0 W/m 4,9 C -5,4 C 33,5 km/h (5 Bft)
02.03.2008 00:51 6,3 C 91 % 995,5 hPa 0,0 l/m 30,6 km/h (5 Bft) W-NW 285 0 min 0 W/m 4,9 C -4,7 C 30,6 km/h (5 Bft)
02.03.2008 00:54 6,3 C 91 % 995,5 hPa 0,0 l/m 40,7 km/h (6 Bft) W-NW 290 0 min 0 W/m 4,9 C -6,7 C 40,7 km/h (6 Bft)
02.03.2008 00:57 6,4 C 91 % 995,5 hPa 0,0 l/m 40,6 km/h (6 Bft) W-NW 300 0 min 0 W/m 5,0 C -6,5 C 40,6 km/h (6 Bft)
02.03.2008 01:00 6,4 C 91 % 995,5 hPa 0,0 l/m 41,4 km/h (6 Bft) W-NW 300 0 min 0 W/m 5,0 C -6,7 C 41,4 km/h (6 Bft)
02.03.2008 01:03 6,5 C 90 % 995,5 hPa 0,0 l/m 37,8 km/h (5 Bft) W-NW 295 0 min 0 W/m 5,0 C -5,9 C 37,8 km/h (5 Bft)
02.03.2008 01:06 6,5 C 90 % 995,5 hPa 0,0 l/m 37,2 km/h (5 Bft) W-NW 285 0 min 0 W/m 5,0 C -5,8 C 37,2 km/h (5 Bft)
02.03.2008 01:09 6,5 C 90 % 995,5 hPa 0,0 l/m 40,0 km/h (6 Bft) W-NW 295 0 min 0 W/m 5,0 C -6,3 C 40,0 km/h (6 Bft)
02.03.2008 01:12 6,6 C 89 % 995,5 hPa 0,0 l/m 44,7 km/h (6 Bft) W-NW 285 0 min 0 W/m 4,9 C -6,9 C 44,7 km/h (6 Bft)
02.03.2008 01:15 6,6 C 89 % 995,5 hPa 0,0 l/m 37,9 km/h (6 Bft) W-NW 295 0 min 0 W/m 4,9 C -5,8 C 37,9 km/h (6 Bft)
02.03.2008 01:18 6,6 C 89 % 995,5 hPa 0,0 l/m 36,3 km/h (5 Bft) W-NW 300 0 min 0 W/m 4,9 C -5,5 C 36,3 km/h (5 Bft)
02.03.2008 01:21 6,6 C 89 % 995,5 hPa 0,0 l/m 44,6 km/h (6 Bft) W-NW 290 0 min 0 W/m 4,9 C -6,9 C 44,6 km/h (6 Bft)
02.03.2008 01:24 6,6 C 89 % 995,5 hPa 0,0 l/m 38,5 km/h (6 Bft) W-NW 295 0 min 0 W/m 4,9 C -5,9 C 38,5 km/h (6 Bft)
02.03.2008 01:27 6,6 C 89 % 995,5 hPa 0,0 l/m 38,5 km/h (6 Bft) W-NW 295 0 min 0 W/m 4,9 C -5,9 C 38,5 km/h (6 Bft)
02.03.2008 01:30 6,6 C 88 % 995,5 hPa 0,0 l/m 40,0 km/h (6 Bft) W-NW 295 0 min 0 W/m 4,8 C -6,1 C 40,0 km/h (6 Bft)
02.03.2008 01:33 6,6 C 88 % 995,5 hPa 0,0 l/m 32,0 km/h (5 Bft) W-NW 285 0 min 0 W/m 4,8 C -4,6 C 32,0 km/h (5 Bft)
02.03.2008 01:36 6,6 C 89 % 995,5 hPa 0,0 l/m 31,8 km/h (5 Bft) W-NW 285 0 min 0 W/m 4,9 C -4,5 C 31,8 km/h (5 Bft)
02.03.2008 01:39 6,6 C 88 % 995,5 hPa 0,0 l/m 34,7 km/h (5 Bft) W-NW 285 0 min 0 W/m 4,8 C -5,2 C 34,7 km/h (5 Bft)
02.03.2008 01:42 6,6 C 88 % 994,5 hPa 0,0 l/m 38,1 km/h (6 Bft) W-NW 290 0 min 0 W/m 4,8 C -5,8 C 38,1 km/h (6 Bft)
02.03.2008 01:45 6,6 C 88 % 994,5 hPa 0,0 l/m 35,0 km/h (5 Bft) W-NW 290 0 min 0 W/m 4,8 C -5,2 C 35,0 km/h (5 Bft)
02.03.2008 01:48 6,6 C 88 % 994,5 hPa 0,0 l/m 36,7 km/h (5 Bft) W-NW 295 0 min 0 W/m 4,8 C -5,6 C 36,7 km/h (5 Bft)
02.03.2008 01:51 6,6 C 88 % 994,5 hPa 0,0 l/m 37,2 km/h (5 Bft) W-NW 290 0 min 0 W/m 4,8 C -5,7 C 37,2 km/h (5 Bft)
02.03.2008 01:54 6,6 C 88 % 994,5 hPa 0,0 l/m 35,8 km/h (5 Bft) W-NW 285 0 min 0 W/m 4,8 C -5,4 C 35,8 km/h (5 Bft)
02.03.2008 01:56 6,6 C 88 % 994,5 hPa 0,0 l/m 39,7 km/h (6 Bft) W-NW 285 0 min 0 W/m 4,8 C -6,1 C 39,7 km/h (6 Bft)
02.03.2008 01:59 6,7 C 88 % 994,5 hPa 0,0 l/m 37,8 km/h (5 Bft) W-NW 285 0 min 0 W/m 4,9 C -5,6 C 37,8 km/h (5 Bft)
02.03.2008 02:03 6,7 C 88 % 994,5 hPa 0,0 l/m 31,6 km/h (5 Bft) W-NW 285 0 min 0 W/m 4,9 C -4,4 C 31,6 km/h (5 Bft)
02.03.2008 02:06 6,7 C 88 % 994,5 hPa 0,0 l/m 33,5 km/h (5 Bft) W-NW 285 0 min 0 W/m 4,9 C -4,8 C 33,5 km/h (5 Bft)
02.03.2008 02:09 6,7 C 88 % 994,5 hPa 0,0 l/m 44,2 km/h (6 Bft) W-NW 290 0 min 0 W/m 4,9 C -6,6 C 44,2 km/h (6 Bft)
02.03.2008 02:12 6,8 C 87 % 994,5 hPa 0,0 l/m 38,6 km/h (6 Bft) W 280 0 min 0 W/m 4,8 C -5,6 C 38,6 km/h (6 Bft)
02.03.2008 02:15 6,8 C 87 % 994,5 hPa 0,0 l/m 36,4 km/h (5 Bft) W-NW 295 0 min 0 W/m 4,8 C -5,2 C 36,4 km/h (5 Bft)
02.03.2008 02:18 6,8 C 87 % 994,5 hPa 0,0 l/m 39,6 km/h (6 Bft) W-NW 295 0 min 0 W/m 4,8 C -5,8 C 39,6 km/h (6 Bft)
02.03.2008 02:21 6,7 C 87 % 994,5 hPa 0,0 l/m 34,9 km/h (5 Bft) W-NW 285 0 min 0 W/m 4,7 C -5,1 C 34,9 km/h (5 Bft)
02.03.2008 02:24 6,8 C 87 % 994,5 hPa 0,0 l/m 42,1 km/h (6 Bft) W-NW 295 0 min 0 W/m 4,8 C -6,2 C 42,1 km/h (6 Bft)
02.03.2008 02:27 6,8 C 87 % 994,5 hPa 0,0 l/m 36,8 km/h (5 Bft) W-NW 285 0 min 0 W/m 4,8 C -5,3 C 36,8 km/h (5 Bft)
02.03.2008 02:30 6,8 C 87 % 994,5 hPa 0,0 l/m 37,6 km/h (5 Bft) W-NW 290 0 min 0 W/m 4,8 C -5,4 C 37,6 km/h (5 Bft)
02.03.2008 02:33 6,8 C 87 % 994,5 hPa 0,0 l/m 40,1 km/h (6 Bft) NW 305 0 min 0 W/m 4,8 C -5,9 C 40,1 km/h (6 Bft)
02.03.2008 02:36 6,8 C 87 % 993,5 hPa 0,0 l/m 42,7 km/h (6 Bft) W-NW 295 0 min 0 W/m 4,8 C -6,3 C 42,7 km/h (6 Bft)
02.03.2008 02:38 6,8 C 87 % 993,5 hPa 0,0 l/m 36,6 km/h (5 Bft) W-NW 290 0 min 0 W/m 4,8 C -5,3 C 36,6 km/h (5 Bft)
02.03.2008 02:41 6,8 C 87 % 993,5 hPa 0,0 l/m 39,7 km/h (6 Bft) W-NW 285 0 min 0 W/m 4,8 C -5,8 C 39,7 km/h (6 Bft)
02.03.2008 02:44 6,7 C 88 % 993,5 hPa 0,0 l/m 40,4 km/h (6 Bft) W-NW 295 0 min 0 W/m 4,9 C -6,1 C 40,4 km/h (6 Bft)
02.03.2008 02:47 6,6 C 90 % 993,5 hPa 0,0 l/m 37,5 km/h (5 Bft) NW 305 0 min 0 W/m 5,1 C -5,7 C 37,5 km/h (5 Bft)
02.03.2008 02:51 6,6 C 91 % 993,5 hPa 0,0 l/m 34,8 km/h (5 Bft) W-NW 295 0 min 0 W/m 5,2 C -5,2 C 34,8 km/h (5 Bft)
02.03.2008 02:54 6,5 C 91 % 993,5 hPa 0,0 l/m 28,0 km/h (5 Bft) W 280 0 min 0 W/m 5,1 C -3,8 C 28,0 km/h (5 Bft)
02.03.2008 02:57 6,4 C 92 % 993,5 hPa 0,0 l/m 41,4 km/h (6 Bft) W-NW 290 0 min 0 W/m 5,2 C -6,7 C 41,4 km/h (6 Bft)
02.03.2008 03:00 6,4 C 92 % 993,5 hPa 0,3 l/m 38,9 km/h (6 Bft) W-NW 290 0 min 0 W/m 5,2 C -6,3 C 38,9 km/h (6 Bft)
02.03.2008 03:03 6,4 C 92 % 993,5 hPa 0,0 l/m 34,0 km/h (5 Bft) W-NW 290 0 min 0 W/m 5,2 C -5,3 C 34,0 km/h (5 Bft)
02.03.2008 03:06 6,3 C 92 % 993,5 hPa 0,0 l/m 32,2 km/h (5 Bft) W-NW 290 0 min 0 W/m 5,1 C -5,1 C 32,2 km/h (5 Bft)
02.03.2008 03:09 6,2 C 93 % 993,5 hPa 0,0 l/m 35,0 km/h (5 Bft) W-NW 290 0 min 0 W/m 5,2 C -5,8 C 35,0 km/h (5 Bft)
02.03.2008 03:12 6,2 C 93 % 993,5 hPa 0,0 l/m 31,1 km/h (5 Bft) W-NW 300 0 min 0 W/m 5,2 C -5,0 C 31,1 km/h (5 Bft)
02.03.2008 03:14 6,2 C 93 % 993,5 hPa 0,0 l/m 28,9 km/h (5 Bft) W-NW 290 0 min 0 W/m 5,2 C -4,4 C 28,9 km/h (5 Bft)
02.03.2008 03:17 6,2 C 93 % 993,5 hPa 0,0 l/m 29,0 km/h (5 Bft) W 280 0 min 0 W/m 5,2 C -4,4 C 29,0 km/h (5 Bft)
02.03.2008 03:20 6,2 C 93 % 993,5 hPa 0,0 l/m 34,5 km/h (5 Bft) W 275 0 min 0 W/m 5,2 C -5,7 C 34,5 km/h (5 Bft)
02.03.2008 03:24 6,1 C 94 % 993,5 hPa 0,3 l/m 34,5 km/h (5 Bft) W 275 0 min 0 W/m 5,2 C -5,9 C 34,5 km/h (5 Bft)
02.03.2008 03:27 6,1 C 94 % 993,5 hPa 0,0 l/m 34,4 km/h (5 Bft) W-NW 295 0 min 0 W/m 5,2 C -5,8 C 34,4 km/h (5 Bft)
02.03.2008 03:30 6,0 C 94 % 992,5 hPa 0,3 l/m 41,2 km/h (6 Bft) W-NW 290 0 min 0 W/m 5,1 C -7,2 C 41,2 km/h (6 Bft)
02.03.2008 03:33 6,0 C 95 % 992,5 hPa 0,0 l/m 27,1 km/h (5 Bft) W-NW 285 0 min 0 W/m 5,3 C -4,2 C 27,1 km/h (5 Bft)
02.03.2008 03:36 6,0 C 95 % 992,5 hPa 0,0 l/m 28,1 km/h (5 Bft) W 280 0 min 0 W/m 5,3 C -4,5 C 28,1 km/h (5 Bft)
02.03.2008 03:39 6,0 C 95 % 992,5 hPa 0,0 l/m 31,6 km/h (5 Bft) W-NW 285 0 min 0 W/m 5,3 C -5,4 C 31,6 km/h (5 Bft)
02.03.2008 03:42 6,0 C 95 % 992,5 hPa 0,0 l/m 22,0 km/h (4 Bft) W 275 0 min 0 W/m 5,3 C -2,6 C 22,0 km/h (4 Bft)
02.03.2008 03:45 6,0 C 95 % 992,5 hPa 0,0 l/m 26,0 km/h (4 Bft) W 280 0 min 0 W/m 5,3 C -3,9 C 26,0 km/h (4 Bft)
02.03.2008 03:48 6,0 C 95 % 992,5 hPa 0,3 l/m 25,5 km/h (4 Bft) W-NW 285 0 min 0 W/m 5,3 C -3,7 C 25,5 km/h (4 Bft)
02.03.2008 03:51 6,0 C 95 % 992,5 hPa 0,0 l/m 25,5 km/h (4 Bft) W-NW 285 0 min 0 W/m 5,3 C -3,7 C 25,5 km/h (4 Bft)
02.03.2008 03:54 6,0 C 96 % 992,5 hPa 0,0 l/m 29,6 km/h (5 Bft) W-NW 295 0 min 0 W/m 5,4 C -4,9 C 29,6 km/h (5 Bft)
02.03.2008 03:57 6,0 C 96 % 992,5 hPa 0,0 l/m 29,8 km/h (5 Bft) W-NW 285 0 min 0 W/m 5,4 C -4,9 C 29,8 km/h (5 Bft)
02.03.2008 04:00 6,0 C 96 % 992,5 hPa 0,0 l/m 25,3 km/h (4 Bft) W 265 0 min 0 W/m 5,4 C -3,7 C 25,3 km/h (4 Bft)
02.03.2008 04:03 6,0 C 96 % 991,5 hPa 0,0 l/m 25,3 km/h (4 Bft) W 265 0 min 0 W/m 5,4 C -3,7 C 25,3 km/h (4 Bft)
02.03.2008 04:06 6,0 C 96 % 991,5 hPa 0,0 l/m 28,1 km/h (5 Bft) W 265 0 min 0 W/m 5,4 C -4,5 C 28,1 km/h (5 Bft)
02.03.2008 04:09 5,9 C 96 % 991,5 hPa 0,0 l/m 28,1 km/h (5 Bft) W 265 0 min 0 W/m 5,3 C -4,6 C 28,1 km/h (5 Bft)
02.03.2008 04:12 5,9 C 96 % 991,5 hPa 0,0 l/m 25,9 km/h (4 Bft) W 260 0 min 0 W/m 5,3 C -4,0 C 25,9 km/h (4 Bft)
02.03.2008 04:15 5,9 C 96 % 991,5 hPa 0,0 l/m 27,6 km/h (5 Bft) W 260 0 min 0 W/m 5,3 C -4,5 C 27,6 km/h (5 Bft)
02.03.2008 04:18 5,9 C 96 % 991,5 hPa 0,0 l/m 30,6 km/h (5 Bft) W 270 0 min 0 W/m 5,3 C -5,3 C 30,6 km/h (5 Bft)
02.03.2008 04:21 5,9 C 97 % 991,5 hPa 0,0 l/m 32,7 km/h (5 Bft) W 265 0 min 0 W/m 5,5 C -5,8 C 32,7 km/h (5 Bft)
02.03.2008 04:24 5,9 C 97 % 991,5 hPa 0,0 l/m 20,6 km/h (4 Bft) W 265 0 min 0 W/m 5,5 C -2,2 C 20,6 km/h (4 Bft)
02.03.2008 04:27 5,9 C 97 % 991,5 hPa 0,3 l/m 21,8 km/h (4 Bft) W-SW 245 0 min 0 W/m 5,5 C -2,7 C 21,8 km/h (4 Bft)
02.03.2008 04:30 5,9 C 97 % 990,5 hPa 0,0 l/m 29,6 km/h (5 Bft) W 265 0 min 0 W/m 5,5 C -5,0 C 29,6 km/h (5 Bft)
02.03.2008 04:33 5,9 C 97 % 990,5 hPa 0,0 l/m 18,5 km/h (3 Bft) W-SW 255 0 min 0 W/m 5,5 C -1,4 C 18,5 km/h (3 Bft)
02.03.2008 04:36 5,9 C 97 % 990,5 hPa 0,3 l/m 20,6 km/h (4 Bft) W-SW 255 0 min 0 W/m 5,5 C -2,2 C 20,6 km/h (4 Bft)
02.03.2008 04:39 5,9 C 97 % 990,5 hPa 0,0 l/m 28,1 km/h (5 Bft) W 260 0 min 0 W/m 5,5 C -4,6 C 28,1 km/h (5 Bft)
02.03.2008 04:41 5,9 C 97 % 990,5 hPa 0,0 l/m 25,6 km/h (4 Bft) W-SW 255 0 min 0 W/m 5,5 C -3,9 C 25,6 km/h (4 Bft)
02.03.2008 04:44 5,9 C 97 % 990,5 hPa 0,0 l/m 25,6 km/h (4 Bft) W-SW 255 0 min 0 W/m 5,5 C -3,9 C 25,6 km/h (4 Bft)
02.03.2008 04:47 5,8 C 97 % 990,5 hPa 0,0 l/m 22,7 km/h (4 Bft) W 265 0 min 0 W/m 5,4 C -3,1 C 22,7 km/h (4 Bft)
02.03.2008 04:51 5,8 C 97 % 990,5 hPa 0,3 l/m 25,0 km/h (4 Bft) W 260 0 min 0 W/m 5,4 C -3,9 C 25,0 km/h (4 Bft)
02.03.2008 04:54 5,8 C 97 % 990,5 hPa 0,0 l/m 22,1 km/h (4 Bft) W 260 0 min 0 W/m 5,4 C -2,9 C 22,1 km/h (4 Bft)
02.03.2008 04:57 5,8 C 98 % 990,5 hPa 0,3 l/m 28,3 km/h (5 Bft) W 265 0 min 0 W/m 5,5 C -4,8 C 28,3 km/h (5 Bft)
02.03.2008 05:00 5,8 C 98 % 990,5 hPa 0,0 l/m 36,1 km/h (5 Bft) W-SW 255 0 min 0 W/m 5,5 C -6,6 C 36,1 km/h (5 Bft)
02.03.2008 05:03 5,9 C 98 % 990,5 hPa 0,0 l/m 23,5 km/h (4 Bft) W-SW 255 0 min 0 W/m 5,6 C -3,2 C 23,5 km/h (4 Bft)
02.03.2008 05:06 5,9 C 98 % 989,5 hPa 0,3 l/m 25,6 km/h (4 Bft) W 260 0 min 0 W/m 5,6 C -3,9 C 25,6 km/h (4 Bft)
02.03.2008 05:09 5,9 C 98 % 989,5 hPa 0,0 l/m 28,0 km/h (5 Bft) W-SW 250 0 min 0 W/m 5,6 C -4,6 C 28,0 km/h (5 Bft)
02.03.2008 05:11 5,9 C 98 % 989,5 hPa 0,0 l/m 28,0 km/h (5 Bft) W-SW 250 0 min 0 W/m 5,6 C -4,6 C 28,0 km/h (5 Bft)
02.03.2008 05:14 5,9 C 98 % 989,5 hPa 0,0 l/m 25,6 km/h (4 Bft) W-SW 250 0 min 0 W/m 5,6 C -3,9 C 25,6 km/h (4 Bft)
02.03.2008 05:17 5,9 C 98 % 989,5 hPa 0,3 l/m 26,3 km/h (4 Bft) W-SW 255 0 min 0 W/m 5,6 C -4,1 C 26,3 km/h (4 Bft)
02.03.2008 05:21 6,0 C 98 % 989,5 hPa 0,0 l/m 24,8 km/h (4 Bft) W 260 0 min 0 W/m 5,7 C -3,5 C 24,8 km/h (4 Bft)
02.03.2008 05:24 6,0 C 98 % 989,5 hPa 0,3 l/m 23,8 km/h (4 Bft) W-SW 255 0 min 0 W/m 5,7 C -3,2 C 23,8 km/h (4 Bft)
02.03.2008 05:27 6,2 C 98 % 989,5 hPa 0,3 l/m 25,2 km/h (4 Bft) W 260 0 min 0 W/m 5,9 C -3,4 C 25,2 km/h (4 Bft)
02.03.2008 05:30 6,4 C 98 % 989,5 hPa 0,0 l/m 21,8 km/h (4 Bft) W 280 0 min 0 W/m 6,1 C -2,0 C 21,8 km/h (4 Bft)
02.03.2008 05:33 6,4 C 98 % 989,5 hPa 0,0 l/m 22,8 km/h (4 Bft) W 275 0 min 0 W/m 6,1 C -2,4 C 22,8 km/h (4 Bft)
02.03.2008 05:36 6,5 C 98 % 989,5 hPa 0,0 l/m 18,5 km/h (3 Bft) W-NW 285 0 min 0 W/m 6,2 C -0,7 C 18,5 km/h (3 Bft)
02.03.2008 05:39 6,8 C 99 % 989,5 hPa 0,0 l/m 31,5 km/h (5 Bft) W-NW 295 0 min 0 W/m 6,7 C -4,2 C 31,5 km/h (5 Bft)
02.03.2008 05:42 7,0 C 99 % 989,5 hPa 0,0 l/m 35,8 km/h (5 Bft) NW 305 0 min 0 W/m 6,9 C -4,8 C 35,8 km/h (5 Bft)
02.03.2008 05:45 7,1 C 99 % 989,5 hPa 0,0 l/m 33,0 km/h (5 Bft) W-NW 295 0 min 0 W/m 7,0 C -4,1 C 33,0 km/h (5 Bft)
02.03.2008 05:48 7,2 C 99 % 988,5 hPa 0,3 l/m 41,4 km/h (6 Bft) W-NW 290 0 min 0 W/m 7,1 C -5,5 C 41,4 km/h (6 Bft)
02.03.2008 05:51 7,2 C 99 % 988,5 hPa 0,0 l/m 36,9 km/h (5 Bft) W-NW 285 0 min 0 W/m 7,1 C -4,7 C 36,9 km/h (5 Bft)
02.03.2008 05:54 7,2 C 98 % 988,5 hPa 0,0 l/m 43,2 km/h (6 Bft) W-NW 300 0 min 0 W/m 6,9 C -5,7 C 43,2 km/h (6 Bft)
02.03.2008 05:57 7,4 C 98 % 988,5 hPa 0,0 l/m 39,7 km/h (6 Bft) W-NW 295 0 min 0 W/m 7,1 C -4,9 C 39,7 km/h (6 Bft)
02.03.2008 06:00 7,4 C 98 % 988,5 hPa 0,0 l/m 43,8 km/h (6 Bft) W-NW 295 0 min 0 W/m 7,1 C -5,5 C 43,8 km/h (6 Bft)
02.03.2008 06:03 7,4 C 98 % 988,5 hPa 0,0 l/m 39,2 km/h (6 Bft) W-NW 295 0 min 0 W/m 7,1 C -4,8 C 39,2 km/h (6 Bft)
02.03.2008 06:06 7,4 C 98 % 988,5 hPa 0,0 l/m 44,3 km/h (6 Bft) W-NW 295 0 min 0 W/m 7,1 C -5,6 C 44,3 km/h (6 Bft)
02.03.2008 06:09 7,4 C 98 % 988,5 hPa 0,0 l/m 44,2 km/h (6 Bft) W-NW 295 0 min 0 W/m 7,1 C -5,6 C 44,2 km/h (6 Bft)
02.03.2008 06:12 7,4 C 97 % 988,5 hPa 0,0 l/m 39,1 km/h (6 Bft) W-NW 285 0 min 0 W/m 7,0 C -4,8 C 39,1 km/h (6 Bft)
02.03.2008 06:15 7,4 C 97 % 988,5 hPa 0,0 l/m 37,2 km/h (5 Bft) W-NW 290 0 min 0 W/m 7,0 C -4,5 C 37,2 km/h (5 Bft)
02.03.2008 06:18 7,5 C 97 % 988,5 hPa 0,0 l/m 36,4 km/h (5 Bft) W-NW 300 0 min 0 W/m 7,1 C -4,2 C 36,4 km/h (5 Bft)
02.03.2008 06:21 7,5 C 97 % 988,5 hPa 0,0 l/m 39,3 km/h (6 Bft) NW 315 0 min 0 W/m 7,1 C -4,7 C 39,3 km/h (6 Bft)
02.03.2008 06:24 7,5 C 97 % 988,5 hPa 0,0 l/m 47,2 km/h (6 Bft) W-NW 300 0 min 0 W/m 7,1 C -5,8 C 47,2 km/h (6 Bft)
02.03.2008 06:27 7,5 C 97 % 988,5 hPa 0,0 l/m 42,4 km/h (6 Bft) NW 310 0 min 0 W/m 7,1 C -5,2 C 42,4 km/h (6 Bft)
02.03.2008 06:29 7,5 C 97 % 988,5 hPa 0,0 l/m 42,6 km/h (6 Bft) W-NW 300 0 min 0 W/m 7,1 C -5,2 C 42,6 km/h (6 Bft)
02.03.2008 06:32 7,6 C 97 % 988,5 hPa 0,0 l/m 39,9 km/h (6 Bft) NW 305 0 min 0 W/m 7,2 C -4,6 C 39,9 km/h (6 Bft)
02.03.2008 06:35 7,6 C 97 % 989,5 hPa 0,0 l/m 42,0 km/h (6 Bft) W-NW 300 0 min 0 W/m 7,2 C -5,0 C 42,0 km/h (6 Bft)
02.03.2008 06:39 7,5 C 97 % 989,5 hPa 0,0 l/m 44,5 km/h (6 Bft) W-NW 295 0 min 0 W/m 7,1 C -5,5 C 44,5 km/h (6 Bft)
02.03.2008 06:42 7,5 C 97 % 989,5 hPa 0,0 l/m 40,7 km/h (6 Bft) NW 305 0 min 0 W/m 7,1 C -4,9 C 40,7 km/h (6 Bft)
02.03.2008 06:45 7,5 C 97 % 989,5 hPa 0,0 l/m 36,5 km/h (5 Bft) W-NW 300 0 min 0 W/m 7,1 C -4,2 C 36,5 km/h (5 Bft)
02.03.2008 06:48 7,5 C 96 % 989,5 hPa 0,0 l/m 46,4 km/h (6 Bft) NW 310 0 min 0 W/m 6,9 C -5,7 C 46,4 km/h (6 Bft)
02.03.2008 06:51 7,5 C 96 % 989,5 hPa 0,0 l/m 42,6 km/h (6 Bft) W-NW 300 0 min 0 W/m 6,9 C -5,2 C 42,6 km/h (6 Bft)
02.03.2008 06:54 7,5 C 96 % 989,5 hPa 0,0 l/m 40,1 km/h (6 Bft) NW 315 0 min 0 W/m 6,9 C -4,8 C 40,1 km/h (6 Bft)
02.03.2008 06:57 7,5 C 96 % 989,5 hPa 0,0 l/m 44,5 km/h (6 Bft) NW 305 0 min 0 W/m 6,9 C -5,5 C 44,5 km/h (6 Bft)
02.03.2008 07:00 7,4 C 96 % 989,5 hPa 0,0 l/m 45,3 km/h (6 Bft) NW 305 0 min 0 W/m 6,8 C -5,7 C 45,3 km/h (6 Bft)
02.03.2008 07:02 7,4 C 96 % 989,5 hPa 0,0 l/m 40,6 km/h (6 Bft) W-NW 300 0 min 0 W/m 6,8 C -5,1 C 40,6 km/h (6 Bft)
02.03.2008 07:05 7,4 C 96 % 989,5 hPa 0,0 l/m 48,5 km/h (6 Bft) NW 310 0 min 0 W/m 6,8 C -6,1 C 48,5 km/h (6 Bft)
02.03.2008 07:09 7,4 C 96 % 989,5 hPa 0,0 l/m 39,6 km/h (6 Bft) W-NW 295 0 min 0 W/m 6,8 C -4,9 C 39,6 km/h (6 Bft)
02.03.2008 07:12 7,5 C 95 % 989,5 hPa 0,0 l/m 52,5 km/h (7 Bft) NW 315 0 min 0 W/m 6,8 C -6,4 C 52,5 km/h (7 Bft)
02.03.2008 07:15 7,4 C 95 % 989,5 hPa 0,0 l/m 37,3 km/h (5 Bft) W-NW 300 0 min 0 W/m 6,7 C -4,5 C 37,3 km/h (5 Bft)
02.03.2008 07:18 7,4 C 95 % 989,5 hPa 0,0 l/m 41,3 km/h (6 Bft) NW 305 0 min 0 W/m 6,7 C -5,2 C 41,3 km/h (6 Bft)
02.03.2008 07:21 7,4 C 95 % 989,5 hPa 0,0 l/m 35,1 km/h (5 Bft) W-NW 300 0 min 0 W/m 6,7 C -4,1 C 35,1 km/h (5 Bft)
02.03.2008 07:24 7,4 C 95 % 989,5 hPa 0,0 l/m 38,0 km/h (6 Bft) NW 310 0 min 0 W/m 6,7 C -4,6 C 38,0 km/h (6 Bft)
02.03.2008 07:27 7,4 C 95 % 989,5 hPa 0,0 l/m 37,5 km/h (5 Bft) NW 310 0 min 0 W/m 6,7 C -4,5 C 37,5 km/h (5 Bft)
02.03.2008 07:30 7,4 C 95 % 989,5 hPa 0,0 l/m 40,7 km/h (6 Bft) NW 310 0 min 0 W/m 6,7 C -5,1 C 40,7 km/h (6 Bft)
02.03.2008 07:33 7,4 C 95 % 989,5 hPa 0,0 l/m 44,1 km/h (6 Bft) W-NW 300 0 min 0 W/m 6,7 C -5,6 C 44,1 km/h (6 Bft)
02.03.2008 07:36 7,4 C 95 % 989,5 hPa 0,0 l/m 36,0 km/h (5 Bft) NW 310 0 min 0 W/m 6,7 C -4,3 C 36,0 km/h (5 Bft)
02.03.2008 07:39 7,4 C 95 % 989,5 hPa 0,0 l/m 37,1 km/h (5 Bft) NW 320 0 min 0 W/m 6,7 C -4,5 C 37,1 km/h (5 Bft)
02.03.2008 07:42 7,3 C 95 % 990,5 hPa 0,3 l/m 35,1 km/h (5 Bft) NW 305 0 min 0 W/m 6,6 C -4,2 C 35,1 km/h (5 Bft)
02.03.2008 07:45 7,3 C 95 % 990,5 hPa 0,0 l/m 42,4 km/h (6 Bft) NW 310 0 min 0 W/m 6,6 C -5,5 C 42,4 km/h (6 Bft)
02.03.2008 07:47 7,4 C 95 % 990,5 hPa 0,0 l/m 42,4 km/h (6 Bft) NW 310 0 min 0 W/m 6,7 C -5,3 C 42,4 km/h (6 Bft)
02.03.2008 07:50 7,2 C 94 % 990,5 hPa 0,0 l/m 36,8 km/h (5 Bft) NW 305 0 min 0 W/m 6,3 C -4,7 C 36,8 km/h (5 Bft)
02.03.2008 07:54 7,3 C 95 % 990,5 hPa 0,0 l/m 38,7 km/h (6 Bft) W-NW 300 0 min 0 W/m 6,6 C -4,9 C 38,7 km/h (6 Bft)
02.03.2008 07:57 7,2 C 94 % 990,5 hPa 0,3 l/m 41,6 km/h (6 Bft) NW 305 0 min 0 W/m 6,3 C -5,5 C 41,6 km/h (6 Bft)
02.03.2008 08:00 7,2 C 94 % 990,5 hPa 0,0 l/m 32,7 km/h (5 Bft) NW 315 0 min 0 W/m 6,3 C -3,9 C 32,7 km/h (5 Bft)
02.03.2008 08:03 7,2 C 94 % 990,5 hPa 0,0 l/m 34,4 km/h (5 Bft) W-NW 290 0 min 0 W/m 6,3 C -4,2 C 34,4 km/h (5 Bft)
02.03.2008 08:06 7,2 C 94 % 990,5 hPa 0,0 l/m 39,4 km/h (6 Bft) NW 315 0 min 0 W/m 6,3 C -5,2 C 39,4 km/h (6 Bft)
02.03.2008 08:09 7,2 C 94 % 990,5 hPa 0,3 l/m 36,6 km/h (5 Bft) NW 305 0 min 0 W/m 6,3 C -4,7 C 36,6 km/h (5 Bft)
02.03.2008 08:11 7,2 C 94 % 990,5 hPa 0,0 l/m 37,0 km/h (5 Bft) NW 315 0 min 0 W/m 6,3 C -4,7 C 37,0 km/h (5 Bft)
02.03.2008 08:14 7,1 C 94 % 990,5 hPa 0,0 l/m 34,4 km/h (5 Bft) NW 310 0 min 0 W/m 6,2 C -4,4 C 34,4 km/h (5 Bft)
02.03.2008 08:17 7,0 C 94 % 990,5 hPa 0,0 l/m 32,7 km/h (5 Bft) NW 305 0 min 0 W/m 6,1 C -4,2 C 32,7 km/h (5 Bft)
02.03.2008 08:21 7,0 C 94 % 990,5 hPa 0,3 l/m 37,0 km/h (5 Bft) NW 310 0 min 0 W/m 6,1 C -5,0 C 37,0 km/h (5 Bft)
02.03.2008 08:24 7,0 C 94 % 990,5 hPa 0,0 l/m 38,3 km/h (6 Bft) NW 315 0 min 0 W/m 6,1 C -5,3 C 38,3 km/h (6 Bft)
02.03.2008 08:27 7,0 C 94 % 990,5 hPa 0,0 l/m 37,0 km/h (5 Bft) NW 315 0 min 0 W/m 6,1 C -5,0 C 37,0 km/h (5 Bft)
02.03.2008 08:30 7,1 C 94 % 990,5 hPa 0,0 l/m 33,6 km/h (5 Bft) NW 310 0 min 0 W/m 6,2 C -4,2 C 33,6 km/h (5 Bft)
02.03.2008 08:33 7,2 C 94 % 990,5 hPa 0,0 l/m 41,8 km/h (6 Bft) W-NW 295 0 min 0 W/m 6,3 C -5,5 C 41,8 km/h (6 Bft)
02.03.2008 08:36 7,2 C 93 % 990,5 hPa 0,0 l/m 44,4 km/h (6 Bft) NW 315 0 min 0 W/m 6,1 C -5,9 C 44,4 km/h (6 Bft)
02.03.2008 08:39 7,3 C 92 % 990,5 hPa 0,0 l/m 40,0 km/h (6 Bft) NW 305 0 min 0 W/m 6,1 C -5,1 C 40,0 km/h (6 Bft)
02.03.2008 08:42 7,4 C 92 % 990,5 hPa 0,0 l/m 42,1 km/h (6 Bft) NW 305 0 min 0 W/m 6,2 C -5,3 C 42,1 km/h (6 Bft)
02.03.2008 08:45 7,4 C 92 % 990,5 hPa 0,0 l/m 40,1 km/h (6 Bft) NW 310 0 min 0 W/m 6,2 C -5,0 C 40,1 km/h (6 Bft)
02.03.2008 08:48 7,4 C 91 % 991,5 hPa 0,0 l/m 43,8 km/h (6 Bft) W-NW 295 0 min 0 W/m 6,0 C -5,5 C 43,8 km/h (6 Bft)
02.03.2008 08:51 7,4 C 91 % 991,5 hPa 0,0 l/m 46,1 km/h (6 Bft) W-NW 300 0 min 0 W/m 6,0 C -5,8 C 46,1 km/h (6 Bft)
02.03.2008 08:54 7,4 C 91 % 991,5 hPa 0,0 l/m 47,0 km/h (6 Bft) W-NW 300 0 min 0 W/m 6,0 C -6,0 C 47,0 km/h (6 Bft)
02.03.2008 08:56 7,4 C 91 % 991,5 hPa 0,0 l/m 41,6 km/h (6 Bft) W-NW 300 0 min 0 W/m 6,0 C -5,2 C 41,6 km/h (6 Bft)
02.03.2008 08:59 7,5 C 90 % 991,5 hPa 0,0 l/m 42,7 km/h (6 Bft) W-NW 295 0 min 0 W/m 6,0 C -5,2 C 42,7 km/h (6 Bft)
02.03.2008 09:03 7,4 C 90 % 991,5 hPa 0,0 l/m 34,3 km/h (5 Bft) NW 315 0 min 0 W/m 5,9 C -3,9 C 34,3 km/h (5 Bft)
02.03.2008 09:06 7,4 C 90 % 991,5 hPa 0,0 l/m 45,1 km/h (6 Bft) NW 305 0 min 0 W/m 5,9 C -5,7 C 45,1 km/h (6 Bft)
02.03.2008 09:09 7,5 C 90 % 991,5 hPa 0,0 l/m 38,1 km/h (6 Bft) NW 305 0 min 0 W/m 6,0 C -4,5 C 38,1 km/h (6 Bft)
02.03.2008 09:12 7,6 C 89 % 991,5 hPa 0,0 l/m 33,4 km/h (5 Bft) NW 305 0 min 0 W/m 5,9 C -3,5 C 33,4 km/h (5 Bft)
02.03.2008 09:15 7,6 C 89 % 991,5 hPa 0,0 l/m 39,6 km/h (6 Bft) W-NW 300 0 min 0 W/m 5,9 C -4,6 C 39,6 km/h (6 Bft)
02.03.2008 09:17 7,6 C 89 % 991,5 hPa 0,0 l/m 45,4 km/h (6 Bft) W-NW 300 0 min 0 W/m 5,9 C -5,4 C 45,4 km/h (6 Bft)
02.03.2008 09:20 7,6 C 88 % 991,5 hPa 0,0 l/m 40,5 km/h (6 Bft) W-NW 300 0 min 0 W/m 5,7 C -4,7 C 40,5 km/h (6 Bft)
02.03.2008 09:24 7,7 C 88 % 991,5 hPa 0,0 l/m 52,2 km/h (7 Bft) NW 310 0 min 0 W/m 5,8 C -6,1 C 52,2 km/h (7 Bft)
02.03.2008 09:27 7,7 C 88 % 991,5 hPa 0,0 l/m 39,8 km/h (6 Bft) NW 305 0 min 0 W/m 5,8 C -4,5 C 39,8 km/h (6 Bft)
02.03.2008 09:30 7,7 C 88 % 991,5 hPa 0,0 l/m 42,8 km/h (6 Bft) W-NW 300 0 min 0 W/m 5,8 C -4,9 C 42,8 km/h (6 Bft)
02.03.2008 09:33 7,8 C 88 % 991,5 hPa 0,0 l/m 44,4 km/h (6 Bft) W-NW 295 0 min 0 W/m 5,9 C -5,0 C 44,4 km/h (6 Bft)
02.03.2008 09:36 7,8 C 88 % 991,5 hPa 0,0 l/m 40,1 km/h (6 Bft) W-NW 300 0 min 0 W/m 5,9 C -4,4 C 40,1 km/h (6 Bft)
02.03.2008 09:39 7,8 C 87 % 991,5 hPa 0,0 l/m 42,7 km/h (6 Bft) W-NW 300 0 min 0 W/m 5,8 C -4,8 C 42,7 km/h (6 Bft)
02.03.2008 09:42 7,9 C 87 % 991,5 hPa 0,0 l/m 45,3 km/h (6 Bft) NW 310 0 min 0 W/m 5,9 C -5,0 C 45,3 km/h (6 Bft)
02.03.2008 09:45 7,9 C 87 % 991,5 hPa 0,0 l/m 46,2 km/h (6 Bft) W-NW 300 0 min 0 W/m 5,9 C -5,1 C 46,2 km/h (6 Bft)
02.03.2008 09:48 8,0 C 86 % 992,5 hPa 0,0 l/m 42,4 km/h (6 Bft) NW 315 0 min 0 W/m 5,8 C -4,4 C 42,4 km/h (6 Bft)
02.03.2008 09:51 8,0 C 87 % 992,5 hPa 0,0 l/m 42,4 km/h (6 Bft) NW 315 0 min 0 W/m 6,0 C -4,4 C 42,4 km/h (6 Bft)
02.03.2008 09:54 8,0 C 87 % 992,5 hPa 0,0 l/m 47,7 km/h (6 Bft) NW 305 0 min 0 W/m 6,0 C -5,1 C 47,7 km/h (6 Bft)
02.03.2008 09:56 8,0 C 86 % 992,5 hPa 0,0 l/m 42,5 km/h (6 Bft) NW 310 0 min 0 W/m 5,8 C -4,4 C 42,5 km/h (6 Bft)
02.03.2008 09:59 8,0 C 86 % 992,5 hPa 0,0 l/m 41,3 km/h (6 Bft) NW 320 0 min 0 W/m 5,8 C -4,3 C 41,3 km/h (6 Bft)
02.03.2008 10:03 8,0 C 87 % 992,5 hPa 0,0 l/m 44,3 km/h (6 Bft) NW 315 0 min 0 W/m 6,0 C -4,7 C 44,3 km/h (6 Bft)
02.03.2008 10:06 8,1 C 87 % 992,5 hPa 0,0 l/m 36,4 km/h (5 Bft) NW 310 0 min 0 W/m 6,1 C -3,3 C 36,4 km/h (5 Bft)
02.03.2008 10:09 8,1 C 87 % 992,5 hPa 0,0 l/m 41,9 km/h (6 Bft) NW 310 0 min 0 W/m 6,1 C -4,2 C 41,9 km/h (6 Bft)
02.03.2008 10:12 8,0 C 87 % 992,5 hPa 0,0 l/m 44,8 km/h (6 Bft) NW 305 0 min 0 W/m 6,0 C -4,8 C 44,8 km/h (6 Bft)
02.03.2008 10:15 8,0 C 87 % 992,5 hPa 0,0 l/m 41,1 km/h (6 Bft) NW 310 0 min 0 W/m 6,0 C -4,2 C 41,1 km/h (6 Bft)
02.03.2008 10:18 8,0 C 87 % 992,5 hPa 0,0 l/m 41,6 km/h (6 Bft) NW 315 0 min 0 W/m 6,0 C -4,3 C 41,6 km/h (6 Bft)
02.03.2008 10:20 8,0 C 88 % 992,5 hPa 0,0 l/m 47,7 km/h (6 Bft) W-NW 300 0 min 0 W/m 6,1 C -5,1 C 47,7 km/h (6 Bft)
02.03.2008 10:23 8,0 C 88 % 992,5 hPa 0,0 l/m 47,4 km/h (6 Bft) NW 310 0 min 0 W/m 6,1 C -5,1 C 47,4 km/h (6 Bft)
02.03.2008 10:27 8,1 C 87 % 993,5 hPa 0,0 l/m 40,4 km/h (6 Bft) NW 315 0 min 0 W/m 6,1 C -4,0 C 40,4 km/h (6 Bft)
02.03.2008 10:30 8,1 C 87 % 993,5 hPa 0,0 l/m 35,8 km/h (5 Bft) NW 310 0 min 0 W/m 6,1 C -3,2 C 35,8 km/h (5 Bft)
02.03.2008 10:33 8,1 C 87 % 993,5 hPa 0,0 l/m 43,7 km/h (6 Bft) NW 315 0 min 0 W/m 6,1 C -4,5 C 43,7 km/h (6 Bft)
02.03.2008 10:36 8,2 C 87 % 993,5 hPa 0,0 l/m 33,5 km/h (5 Bft) NW 310 0 min 0 W/m 6,2 C -2,6 C 33,5 km/h (5 Bft)
02.03.2008 10:39 8,2 C 87 % 993,5 hPa 0,0 l/m 34,3 km/h (5 Bft) NW 310 0 min 0 W/m 6,2 C -2,8 C 34,3 km/h (5 Bft)
02.03.2008 10:42 8,1 C 87 % 993,5 hPa 0,0 l/m 38,4 km/h (6 Bft) NW 310 0 min 0 W/m 6,1 C -3,7 C 38,4 km/h (6 Bft)
02.03.2008 10:45 8,0 C 87 % 993,5 hPa 0,0 l/m 36,4 km/h (5 Bft) NW 320 0 min 0 W/m 6,0 C -3,5 C 36,4 km/h (5 Bft)
02.03.2008 10:48 8,0 C 86 % 993,5 hPa 0,0 l/m 36,4 km/h (5 Bft) NW 320 0 min 0 W/m 5,8 C -3,5 C 36,4 km/h (5 Bft)
02.03.2008 10:51 8,0 C 86 % 993,5 hPa 0,0 l/m 41,9 km/h (6 Bft) NW 315 0 min 0 W/m 5,8 C -4,4 C 41,9 km/h (6 Bft)
02.03.2008 10:54 7,8 C 86 % 993,5 hPa 0,0 l/m 43,5 km/h (6 Bft) NW 320 0 min 0 W/m 5,6 C -4,9 C 43,5 km/h (6 Bft)
02.03.2008 10:57 7,9 C 87 % 993,5 hPa 0,0 l/m 43,9 km/h (6 Bft) NW 305 0 min 0 W/m 5,9 C -4,8 C 43,9 km/h (6 Bft)
02.03.2008 10:59 7,9 C 87 % 993,5 hPa 0,0 l/m 40,3 km/h (6 Bft) NW 320 0 min 0 W/m 5,9 C -4,3 C 40,3 km/h (6 Bft)
02.03.2008 11:03 7,9 C 86 % 993,5 hPa 0,0 l/m 39,6 km/h (6 Bft) NW 315 0 min 0 W/m 5,7 C -4,2 C 39,6 km/h (6 Bft)
02.03.2008 11:06 7,8 C 87 % 993,5 hPa 0,0 l/m 41,1 km/h (6 Bft) NW 315 0 min 0 W/m 5,8 C -4,5 C 41,1 km/h (6 Bft)
02.03.2008 11:09 7,9 C 87 % 993,5 hPa 0,0 l/m 35,1 km/h (5 Bft) NW 310 0 min 0 W/m 5,9 C -3,4 C 35,1 km/h (5 Bft)
02.03.2008 11:12 7,9 C 87 % 993,5 hPa 0,0 l/m 33,6 km/h (5 Bft) NW 310 0 min 0 W/m 5,9 C -3,1 C 33,6 km/h (5 Bft)
02.03.2008 11:15 8,0 C 87 % 993,5 hPa 0,0 l/m 31,2 km/h (5 Bft) NW 315 0 min 0 W/m 6,0 C -2,4 C 31,2 km/h (5 Bft)
02.03.2008 11:18 8,2 C 87 % 994,5 hPa 0,0 l/m 32,3 km/h (5 Bft) NW 305 0 min 0 W/m 6,2 C -2,4 C 32,3 km/h (5 Bft)
02.03.2008 11:21 8,3 C 86 % 994,5 hPa 0,0 l/m 35,0 km/h (5 Bft) NW 320 0 min 0 W/m 6,1 C -2,8 C 35,0 km/h (5 Bft)
02.03.2008 11:23 8,4 C 85 % 994,5 hPa 0,0 l/m 32,9 km/h (5 Bft) NW 315 0 min 0 W/m 6,0 C -2,2 C 32,9 km/h (5 Bft)
02.03.2008 11:26 8,5 C 85 % 994,5 hPa 0,0 l/m 42,2 km/h (6 Bft) NW 305 0 min 0 W/m 6,1 C -3,7 C 42,2 km/h (6 Bft)
02.03.2008 11:30 8,4 C 85 % 994,5 hPa 0,0 l/m 36,8 km/h (5 Bft) NW 310 0 min 0 W/m 6,0 C -3,0 C 36,8 km/h (5 Bft)
02.03.2008 11:33 8,4 C 85 % 994,5 hPa 0,0 l/m 27,1 km/h (5 Bft) W-NW 295 0 min 0 W/m 6,0 C -0,9 C 27,1 km/h (5 Bft)
02.03.2008 11:36 8,4 C 85 % 994,5 hPa 0,0 l/m 38,4 km/h (6 Bft) NW 315 0 min 0 W/m 6,0 C -3,2 C 38,4 km/h (6 Bft)
02.03.2008 11:39 8,4 C 85 % 994,5 hPa 0,0 l/m 35,4 km/h (5 Bft) NW 310 0 min 0 W/m 6,0 C -2,7 C 35,4 km/h (5 Bft)
02.03.2008 11:42 8,3 C 85 % 994,5 hPa 0,0 l/m 30,1 km/h (5 Bft) NW 315 0 min 0 W/m 5,9 C -1,8 C 30,1 km/h (5 Bft)
02.03.2008 11:45 8,3 C 85 % 994,5 hPa 0,0 l/m 34,5 km/h (5 Bft) NW 305 0 min 0 W/m 5,9 C -2,7 C 34,5 km/h (5 Bft)
02.03.2008 11:48 8,3 C 85 % 994,5 hPa 0,0 l/m 41,3 km/h (6 Bft) NW 305 0 min 0 W/m 5,9 C -3,8 C 41,3 km/h (6 Bft)
02.03.2008 11:51 8,4 C 85 % 994,5 hPa 0,0 l/m 40,7 km/h (6 Bft) W-NW 300 0 min 0 W/m 6,0 C -3,6 C 40,7 km/h (6 Bft)
02.03.2008 11:54 8,5 C 85 % 994,5 hPa 0,0 l/m 36,5 km/h (5 Bft) NW 310 0 min 0 W/m 6,1 C -2,8 C 36,5 km/h (5 Bft)
02.03.2008 11:57 8,6 C 83 % 995,5 hPa 0,0 l/m 37,3 km/h (5 Bft) NW 315 0 min 0 W/m 5,9 C -2,7 C 37,3 km/h (5 Bft)
02.03.2008 11:59 8,7 C 83 % 995,5 hPa 0,0 l/m 31,1 km/h (5 Bft) W-NW 295 0 min 0 W/m 6,0 C -1,4 C 31,1 km/h (5 Bft)
02.03.2008 12:03 8,7 C 82 % 995,5 hPa 0,0 l/m 41,1 km/h (6 Bft) NW 310 0 min 0 W/m 5,8 C -3,2 C 41,1 km/h (6 Bft)
02.03.2008 12:06 8,7 C 82 % 995,5 hPa 0,0 l/m 35,4 km/h (5 Bft) W-NW 295 0 min 0 W/m 5,8 C -2,3 C 35,4 km/h (5 Bft)
02.03.2008 12:09 8,8 C 83 % 995,5 hPa 0,0 l/m 37,8 km/h (5 Bft) NW 310 0 min 0 W/m 6,1 C -2,5 C 37,8 km/h (5 Bft)
02.03.2008 12:12 8,9 C 83 % 995,5 hPa 0,0 l/m 31,6 km/h (5 Bft) NW 315 0 min 0 W/m 6,2 C -1,2 C 31,6 km/h (5 Bft)
02.03.2008 12:15 9,1 C 83 % 995,5 hPa 0,0 l/m 31,6 km/h (5 Bft) NW 315 0 min 0 W/m 6,4 C -1,0 C 31,6 km/h (5 Bft)
02.03.2008 12:18 9,1 C 82 % 995,5 hPa 0,0 l/m 31,5 km/h (5 Bft) NW 310 0 min 0 W/m 6,2 C -0,9 C 31,5 km/h (5 Bft)
02.03.2008 12:20 9,2 C 82 % 995,5 hPa 0,0 l/m 37,4 km/h (5 Bft) NW 305 0 min 0 W/m 6,3 C -1,9 C 37,4 km/h (5 Bft)
02.03.2008 12:23 9,1 C 82 % 995,5 hPa 0,0 l/m 25,3 km/h (4 Bft) W-NW 300 0 min 0 W/m 6,2 C 0,5 C 25,3 km/h (4 Bft)
02.03.2008 12:27 9,0 C 82 % 995,5 hPa 0,0 l/m 39,7 km/h (6 Bft) NW 305 0 min 0 W/m 6,1 C -2,5 C 39,7 km/h (6 Bft)
02.03.2008 12:30 8,9 C 83 % 995,5 hPa 0,0 l/m 33,0 km/h (5 Bft) NW 320 0 min 0 W/m 6,2 C -1,5 C 33,0 km/h (5 Bft)
02.03.2008 12:33 8,9 C 83 % 995,5 hPa 0,0 l/m 35,8 km/h (5 Bft) W-NW 295 0 min 0 W/m 6,2 C -2,0 C 35,8 km/h (5 Bft)
02.03.2008 12:36 8,8 C 83 % 995,5 hPa 0,0 l/m 36,8 km/h (5 Bft) NW 310 0 min 0 W/m 6,1 C -2,4 C 36,8 km/h (5 Bft)
02.03.2008 12:39 8,7 C 83 % 995,5 hPa 0,0 l/m 36,7 km/h (5 Bft) W-NW 295 0 min 0 W/m 6,0 C -2,5 C 36,7 km/h (5 Bft)
02.03.2008 12:42 8,7 C 84 % 995,5 hPa 0,0 l/m 35,4 km/h (5 Bft) NW 305 0 min 0 W/m 6,2 C -2,3 C 35,4 km/h (5 Bft)
02.03.2008 12:45 8,8 C 84 % 995,5 hPa 0,0 l/m 39,9 km/h (6 Bft) W-NW 295 0 min 0 W/m 6,2 C -2,9 C 39,9 km/h (6 Bft)
02.03.2008 12:48 8,8 C 83 % 996,5 hPa 0,0 l/m 31,2 km/h (5 Bft) W-NW 295 0 min 0 W/m 6,1 C -1,3 C 31,2 km/h (5 Bft)
02.03.2008 12:51 8,7 C 83 % 996,5 hPa 0,0 l/m 30,2 km/h (5 Bft) NW 310 0 min 0 W/m 6,0 C -1,2 C 30,2 km/h (5 Bft)
02.03.2008 12:53 8,7 C 84 % 996,5 hPa 0,0 l/m 32,0 km/h (5 Bft) W-NW 300 0 min 0 W/m 6,2 C -1,6 C 32,0 km/h (5 Bft)
02.03.2008 12:56 8,8 C 83 % 996,5 hPa 0,0 l/m 26,0 km/h (4 Bft) W-NW 300 0 min 0 W/m 6,1 C -0,1 C 26,0 km/h (4 Bft)
02.03.2008 13:00 8,8 C 83 % 996,5 hPa 0,0 l/m 34,0 km/h (5 Bft) W-NW 300 0 min 0 W/m 6,1 C -1,9 C 34,0 km/h (5 Bft)
02.03.2008 13:03 8,7 C 83 % 996,5 hPa 0,0 l/m 34,3 km/h (5 Bft) NW 310 0 min 0 W/m 6,0 C -2,1 C 34,3 km/h (5 Bft)
02.03.2008 13:06 8,6 C 83 % 996,5 hPa 0,0 l/m 34,8 km/h (5 Bft) NW 315 0 min 0 W/m 5,9 C -2,3 C 34,8 km/h (5 Bft)
02.03.2008 13:09 8,5 C 83 % 996,5 hPa 0,0 l/m 36,4 km/h (5 Bft) NW 305 0 min 0 W/m 5,8 C -2,7 C 36,4 km/h (5 Bft)
02.03.2008 13:12 8,4 C 84 % 996,5 hPa 0,0 l/m 33,2 km/h (5 Bft) NW 305 0 min 0 W/m 5,9 C -2,3 C 33,2 km/h (5 Bft)
02.03.2008 13:14 8,4 C 84 % 996,5 hPa 0,0 l/m 36,6 km/h (5 Bft) W-NW 300 0 min 0 W/m 5,9 C -2,9 C 36,6 km/h (5 Bft)
02.03.2008 13:18 8,2 C 84 % 996,5 hPa 0,0 l/m 32,0 km/h (5 Bft) NW 305 0 min 0 W/m 5,7 C -2,3 C 32,0 km/h (5 Bft)
02.03.2008 13:21 8,1 C 84 % 996,5 hPa 0,0 l/m 29,8 km/h (5 Bft) NW 305 0 min 0 W/m 5,6 C -2,0 C 29,8 km/h (5 Bft)
02.03.2008 13:24 8,1 C 85 % 996,5 hPa 0,0 l/m 40,4 km/h (6 Bft) NW 305 0 min 0 W/m 5,7 C -4,0 C 40,4 km/h (6 Bft)
02.03.2008 13:27 8,0 C 86 % 996,5 hPa 0,0 l/m 33,7 km/h (5 Bft) NW 310 0 min 0 W/m 5,8 C -3,0 C 33,7 km/h (5 Bft)
02.03.2008 13:30 7,9 C 86 % 996,5 hPa 0,0 l/m 34,0 km/h (5 Bft) NW 305 0 min 0 W/m 5,7 C -3,2 C 34,0 km/h (5 Bft)
02.03.2008 13:33 8,0 C 87 % 996,5 hPa 0,0 l/m 30,8 km/h (5 Bft) NW 310 0 min 0 W/m 6,0 C -2,3 C 30,8 km/h (5 Bft)
02.03.2008 13:36 8,1 C 87 % 996,5 hPa 0,0 l/m 30,4 km/h (5 Bft) W-NW 300 0 min 0 W/m 6,1 C -2,1 C 30,4 km/h (5 Bft)
02.03.2008 13:39 8,3 C 87 % 996,5 hPa 0,0 l/m 29,7 km/h (5 Bft) NW 315 0 min 0 W/m 6,3 C -1,7 C 29,7 km/h (5 Bft)
02.03.2008 13:42 8,3 C 86 % 996,5 hPa 0,0 l/m 29,3 km/h (5 Bft) NW 315 0 min 0 W/m 6,1 C -1,6 C 29,3 km/h (5 Bft)
02.03.2008 13:44 8,3 C 85 % 996,5 hPa 0,0 l/m 30,1 km/h (5 Bft) W-NW 300 0 min 0 W/m 5,9 C -1,8 C 30,1 km/h (5 Bft)
02.03.2008 13:47 8,3 C 85 % 996,5 hPa 0,0 l/m 30,7 km/h (5 Bft) NW 305 0 min 0 W/m 5,9 C -1,9 C 30,7 km/h (5 Bft)
02.03.2008 13:51 8,2 C 86 % 996,5 hPa 0,0 l/m 35,4 km/h (5 Bft) NW 315 0 min 0 W/m 6,0 C -3,0 C 35,4 km/h (5 Bft)
02.03.2008 13:54 8,1 C 86 % 996,5 hPa 0,0 l/m 32,0 km/h (5 Bft) NW 315 0 min 0 W/m 5,9 C -2,5 C 32,0 km/h (5 Bft)
02.03.2008 13:57 8,0 C 86 % 997,5 hPa 0,0 l/m 36,4 km/h (5 Bft) W-NW 300 0 min 0 W/m 5,8 C -3,5 C 36,4 km/h (5 Bft)
02.03.2008 14:00 8,0 C 86 % 997,5 hPa 0,0 l/m 43,6 km/h (6 Bft) NW 305 0 min 0 W/m 5,8 C -4,6 C 43,6 km/h (6 Bft)
02.03.2008 14:03 8,0 C 86 % 997,5 hPa 0,0 l/m 28,0 km/h (5 Bft) NW 310 0 min 0 W/m 5,8 C -1,7 C 28,0 km/h (5 Bft)
02.03.2008 14:05 8,0 C 86 % 997,5 hPa 0,0 l/m 31,6 km/h (5 Bft) NW 315 0 min 0 W/m 5,8 C -2,5 C 31,6 km/h (5 Bft)
02.03.2008 14:09 8,1 C 86 % 997,5 hPa 0,0 l/m 28,0 km/h (5 Bft) W-NW 300 0 min 0 W/m 5,9 C -1,5 C 28,0 km/h (5 Bft)
02.03.2008 14:12 8,1 C 86 % 997,5 hPa 0,0 l/m 28,0 km/h (5 Bft) W-NW 300 0 min 0 W/m 5,9 C -1,5 C 28,0 km/h (5 Bft)
02.03.2008 14:15 8,1 C 86 % 997,5 hPa 0,0 l/m 35,2 km/h (5 Bft) NW 310 0 min 0 W/m 5,9 C -3,1 C 35,2 km/h (5 Bft)
02.03.2008 14:18 8,2 C 86 % 997,5 hPa 0,0 l/m 41,0 km/h (6 Bft) W-NW 295 0 min 0 W/m 6,0 C -3,9 C 41,0 km/h (6 Bft)
02.03.2008 14:21 8,1 C 86 % 997,5 hPa 0,0 l/m 34,0 km/h (5 Bft) NW 305 0 min 0 W/m 5,9 C -2,9 C 34,0 km/h (5 Bft)
02.03.2008 14:24 8,1 C 86 % 997,5 hPa 0,0 l/m 42,7 km/h (6 Bft) W-NW 295 0 min 0 W/m 5,9 C -4,3 C 42,7 km/h (6 Bft)
02.03.2008 14:27 8,1 C 86 % 997,5 hPa 0,0 l/m 31,8 km/h (5 Bft) NW 305 0 min 0 W/m 5,9 C -2,4 C 31,8 km/h (5 Bft)
02.03.2008 14:30 8,2 C 86 % 997,5 hPa 0,0 l/m 34,0 km/h (5 Bft) W-NW 300 0 min 0 W/m 6,0 C -2,7 C 34,0 km/h (5 Bft)
02.03.2008 14:33 8,1 C 86 % 997,5 hPa 0,0 l/m 31,6 km/h (5 Bft) NW 315 0 min 0 W/m 5,9 C -2,4 C 31,6 km/h (5 Bft)
02.03.2008 14:35 8,0 C 85 % 997,5 hPa 0,0 l/m 37,0 km/h (5 Bft) W-NW 300 0 min 0 W/m 5,6 C -3,6 C 37,0 km/h (5 Bft)
02.03.2008 14:38 8,0 C 86 % 997,5 hPa 0,0 l/m 32,5 km/h (5 Bft) W-NW 295 0 min 0 W/m 5,8 C -2,7 C 32,5 km/h (5 Bft)
02.03.2008 14:42 8,0 C 86 % 997,5 hPa 0,0 l/m 32,4 km/h (5 Bft) NW 305 0 min 0 W/m 5,8 C -2,7 C 32,4 km/h (5 Bft)
02.03.2008 14:45 8,0 C 87 % 997,5 hPa 0,0 l/m 29,5 km/h (5 Bft) NW 305 0 min 0 W/m 6,0 C -2,0 C 29,5 km/h (5 Bft)
02.03.2008 14:48 8,2 C 87 % 997,5 hPa 0,0 l/m 37,9 km/h (6 Bft) NW 305 0 min 0 W/m 6,2 C -3,4 C 37,9 km/h (6 Bft)
02.03.2008 14:51 8,3 C 86 % 998,5 hPa 0,0 l/m 35,9 km/h (5 Bft) NW 320 0 min 0 W/m 6,1 C -2,9 C 35,9 km/h (5 Bft)
02.03.2008 14:54 8,3 C 86 % 998,5 hPa 0,0 l/m 37,4 km/h (5 Bft) NW 310 0 min 0 W/m 6,1 C -3,2 C 37,4 km/h (5 Bft)
02.03.2008 14:57 8,3 C 86 % 998,5 hPa 0,0 l/m 39,0 km/h (6 Bft) NW 310 0 min 0 W/m 6,1 C -3,5 C 39,0 km/h (6 Bft)
02.03.2008 15:00 8,2 C 86 % 998,5 hPa 0,0 l/m 30,5 km/h (5 Bft) NW 305 0 min 0 W/m 6,0 C -2,0 C 30,5 km/h (5 Bft)
02.03.2008 15:03 8,2 C 86 % 998,5 hPa 0,0 l/m 29,3 km/h (5 Bft) NW 305 0 min 0 W/m 6,0 C -1,7 C 29,3 km/h (5 Bft)
02.03.2008 15:06 8,0 C 87 % 998,5 hPa 0,0 l/m 29,6 km/h (5 Bft) W-NW 290 0 min 0 W/m 6,0 C -2,1 C 29,6 km/h (5 Bft)
02.03.2008 15:09 8,0 C 87 % 998,5 hPa 0,0 l/m 33,9 km/h (5 Bft) W-NW 300 0 min 0 W/m 6,0 C -3,0 C 33,9 km/h (5 Bft)
02.03.2008 15:12 8,1 C 87 % 998,5 hPa 0,0 l/m 30,3 km/h (5 Bft) NW 310 0 min 0 W/m 6,1 C -2,1 C 30,3 km/h (5 Bft)
02.03.2008 15:15 8,0 C 88 % 998,5 hPa 0,0 l/m 34,6 km/h (5 Bft) NW 325 0 min 0 W/m 6,1 C -3,1 C 34,6 km/h (5 Bft)
02.03.2008 15:18 8,0 C 88 % 998,5 hPa 0,0 l/m 37,6 km/h (5 Bft) NW 310 0 min 0 W/m 6,1 C -3,7 C 37,6 km/h (5 Bft)
02.03.2008 15:21 7,9 C 88 % 998,5 hPa 0,0 l/m 29,8 km/h (5 Bft) W-NW 300 0 min 0 W/m 6,0 C -2,3 C 29,8 km/h (5 Bft)
02.03.2008 15:24 7,9 C 88 % 998,5 hPa 0,0 l/m 32,3 km/h (5 Bft) NW 305 0 min 0 W/m 6,0 C -2,8 C 32,3 km/h (5 Bft)
02.03.2008 15:26 7,9 C 88 % 998,5 hPa 0,0 l/m 36,2 km/h (5 Bft) NW 310 0 min 0 W/m 6,0 C -3,6 C 36,2 km/h (5 Bft)
02.03.2008 15:29 7,8 C 89 % 998,5 hPa 0,0 l/m 30,8 km/h (5 Bft) NW 310 0 min 0 W/m 6,1 C -2,6 C 30,8 km/h (5 Bft)
02.03.2008 15:33 7,8 C 88 % 998,5 hPa 0,0 l/m 27,8 km/h (5 Bft) NW 305 0 min 0 W/m 5,9 C -1,9 C 27,8 km/h (5 Bft)
02.03.2008 15:36 7,7 C 88 % 998,5 hPa 0,0 l/m 31,7 km/h (5 Bft) NW 310 0 min 0 W/m 5,8 C -3,0 C 31,7 km/h (5 Bft)
02.03.2008 15:39 7,7 C 88 % 998,5 hPa 0,0 l/m 27,6 km/h (5 Bft) NW 305 0 min 0 W/m 5,8 C -2,0 C 27,6 km/h (5 Bft)
02.03.2008 15:42 7,6 C 88 % 998,5 hPa 0,0 l/m 33,2 km/h (5 Bft) W-NW 295 0 min 0 W/m 5,7 C -3,4 C 33,2 km/h (5 Bft)
02.03.2008 15:45 7,6 C 89 % 999,5 hPa 0,0 l/m 33,3 km/h (5 Bft) NW 305 0 min 0 W/m 5,9 C -3,4 C 33,3 km/h (5 Bft)
02.03.2008 15:48 7,6 C 89 % 999,5 hPa 0,0 l/m 33,3 km/h (5 Bft) NW 305 0 min 0 W/m 5,9 C -3,4 C 33,3 km/h (5 Bft)
02.03.2008 15:51 7,4 C 90 % 999,5 hPa 0,0 l/m 32,9 km/h (5 Bft) NW 310 0 min 0 W/m 5,9 C -3,6 C 32,9 km/h (5 Bft)
02.03.2008 15:54 7,4 C 90 % 999,5 hPa 0,0 l/m 29,8 km/h (5 Bft) NW 305 0 min 0 W/m 5,9 C -3,0 C 29,8 km/h (5 Bft)
02.03.2008 15:57 7,2 C 91 % 999,5 hPa 0,3 l/m 32,0 km/h (5 Bft) NW 305 0 min 0 W/m 5,8 C -3,7 C 32,0 km/h (5 Bft)
02.03.2008 15:59 7,2 C 91 % 999,5 hPa 0,0 l/m 35,1 km/h (5 Bft) NW 305 0 min 0 W/m 5,8 C -4,4 C 35,1 km/h (5 Bft)
02.03.2008 16:03 7,2 C 92 % 999,5 hPa 0,0 l/m 29,3 km/h (5 Bft) NW 310 0 min 0 W/m 6,0 C -3,1 C 29,3 km/h (5 Bft)
02.03.2008 16:06 7,1 C 92 % 999,5 hPa 0,0 l/m 35,5 km/h (5 Bft) NW 310 0 min 0 W/m 5,9 C -4,6 C 35,5 km/h (5 Bft)
02.03.2008 16:09 7,0 C 92 % 999,5 hPa 0,0 l/m 33,3 km/h (5 Bft) NW 310 0 min 0 W/m 5,8 C -4,3 C 33,3 km/h (5 Bft)
02.03.2008 16:12 6,9 C 92 % 999,5 hPa 0,0 l/m 32,0 km/h (5 Bft) NW 310 0 min 0 W/m 5,7 C -4,2 C 32,0 km/h (5 Bft)
02.03.2008 16:15 6,9 C 92 % 999,5 hPa 0,0 l/m 30,2 km/h (5 Bft) NW 320 0 min 0 W/m 5,7 C -3,8 C 30,2 km/h (5 Bft)
02.03.2008 16:17 6,9 C 92 % 999,5 hPa 0,0 l/m 30,2 km/h (5 Bft) NW 320 0 min 0 W/m 5,7 C -3,8 C 30,2 km/h (5 Bft)
02.03.2008 16:21 6,9 C 92 % 999,5 hPa 0,0 l/m 25,9 km/h (4 Bft) W-NW 295 0 min 0 W/m 5,7 C -2,6 C 25,9 km/h (4 Bft)
02.03.2008 16:24 6,8 C 92 % 999,5 hPa 0,0 l/m 32,2 km/h (5 Bft) NW 315 0 min 0 W/m 5,6 C -4,4 C 32,2 km/h (5 Bft)
02.03.2008 16:27 6,8 C 93 % 999,5 hPa 0,0 l/m 30,3 km/h (5 Bft) NW 315 0 min 0 W/m 5,7 C -3,9 C 30,3 km/h (5 Bft)
02.03.2008 16:30 6,8 C 93 % 999,5 hPa 0,0 l/m 34,5 km/h (5 Bft) NW 310 0 min 0 W/m 5,7 C -4,8 C 34,5 km/h (5 Bft)
02.03.2008 16:33 6,8 C 93 % 999,5 hPa 0,0 l/m 31,2 km/h (5 Bft) NW 310 0 min 0 W/m 5,7 C -4,1 C 31,2 km/h (5 Bft)
02.03.2008 16:36 6,7 C 93 % 999,5 hPa 0,0 l/m 28,6 km/h (5 Bft) W-NW 295 0 min 0 W/m 5,6 C -3,6 C 28,6 km/h (5 Bft)
02.03.2008 16:39 6,8 C 93 % 999,5 hPa 0,0 l/m 27,1 km/h (5 Bft) NW 315 0 min 0 W/m 5,7 C -3,1 C 27,1 km/h (5 Bft)
02.03.2008 16:42 6,7 C 93 % 999,5 hPa 0,0 l/m 26,5 km/h (4 Bft) NW 305 0 min 0 W/m 5,6 C -3,1 C 26,5 km/h (4 Bft)
02.03.2008 16:44 6,7 C 93 % 999,5 hPa 0,0 l/m 29,0 km/h (5 Bft) W-NW 295 0 min 0 W/m 5,6 C -3,7 C 29,0 km/h (5 Bft)
02.03.2008 16:47 6,7 C 93 % 999,5 hPa 0,0 l/m 24,6 km/h (4 Bft) W-NW 300 0 min 0 W/m 5,6 C -2,5 C 24,6 km/h (4 Bft)
02.03.2008 16:51 6,7 C 93 % 999,5 hPa 0,0 l/m 27,8 km/h (5 Bft) W-NW 295 0 min 0 W/m 5,6 C -3,4 C 27,8 km/h (5 Bft)
02.03.2008 16:54 6,7 C 93 % 999,5 hPa 0,0 l/m 23,8 km/h (4 Bft) NW 305 0 min 0 W/m 5,6 C -2,3 C 23,8 km/h (4 Bft)
02.03.2008 16:57 6,7 C 93 % 999,5 hPa 0,0 l/m 20,1 km/h (4 Bft) NW 305 0 min 0 W/m 5,6 C -1,0 C 20,1 km/h (4 Bft)
02.03.2008 17:00 6,7 C 93 % 999,5 hPa 0,0 l/m 23,4 km/h (4 Bft) NW 310 0 min 0 W/m 5,6 C -2,1 C 23,4 km/h (4 Bft)
02.03.2008 17:03 6,7 C 94 % 999,5 hPa 0,0 l/m 22,0 km/h (4 Bft) NW 305 0 min 0 W/m 5,8 C -1,7 C 22,0 km/h (4 Bft)
02.03.2008 17:06 6,7 C 94 % 999,5 hPa 0,0 l/m 23,0 km/h (4 Bft) NW 310 0 min 0 W/m 5,8 C -2,0 C 23,0 km/h (4 Bft)
02.03.2008 17:09 6,7 C 94 % 999,5 hPa 0,0 l/m 24,3 km/h (4 Bft) W-NW 290 0 min 0 W/m 5,8 C -2,4 C 24,3 km/h (4 Bft)
02.03.2008 17:12 6,7 C 94 % 999,5 hPa 0,3 l/m 27,1 km/h (5 Bft) NW 315 0 min 0 W/m 5,8 C -3,2 C 27,1 km/h (5 Bft)
02.03.2008 17:14 6,6 C 94 % 999,5 hPa 0,0 l/m 29,5 km/h (5 Bft) NW 305 0 min 0 W/m 5,7 C -4,0 C 29,5 km/h (5 Bft)
02.03.2008 17:17 6,5 C 95 % 999,5 hPa 0,0 l/m 22,6 km/h (4 Bft) W-NW 295 0 min 0 W/m 5,8 C -2,2 C 22,6 km/h (4 Bft)
02.03.2008 17:21 6,6 C 95 % 999,5 hPa 0,0 l/m 22,2 km/h (4 Bft) W-NW 300 0 min 0 W/m 5,9 C -1,9 C 22,2 km/h (4 Bft)
02.03.2008 17:24 6,5 C 95 % 999,5 hPa 0,0 l/m 27,0 km/h (5 Bft) NW 305 0 min 0 W/m 5,8 C -3,5 C 27,0 km/h (5 Bft)
02.03.2008 17:27 6,5 C 95 % 999,5 hPa 0,0 l/m 26,5 km/h (4 Bft) NW 305 0 min 0 W/m 5,8 C -3,3 C 26,5 km/h (4 Bft)
02.03.2008 17:30 6,4 C 95 % 999,5 hPa 0,0 l/m 28,0 km/h (5 Bft) NW 305 0 min 0 W/m 5,7 C -3,9 C 28,0 km/h (5 Bft)
02.03.2008 17:33 6,4 C 95 % 999,5 hPa 0,0 l/m 28,3 km/h (5 Bft) W-NW 295 0 min 0 W/m 5,7 C -4,0 C 28,3 km/h (5 Bft)
02.03.2008 17:36 6,4 C 95 % 999,5 hPa 0,0 l/m 29,7 km/h (5 Bft) NW 305 0 min 0 W/m 5,7 C -4,3 C 29,7 km/h (5 Bft)
02.03.2008 17:39 6,4 C 95 % 999,5 hPa 0,0 l/m 20,2 km/h (4 Bft) W-NW 295 0 min 0 W/m 5,7 C -1,4 C 20,2 km/h (4 Bft)
02.03.2008 17:42 6,4 C 95 % 999,5 hPa 0,0 l/m 22,1 km/h (4 Bft) W-NW 300 0 min 0 W/m 5,7 C -2,1 C 22,1 km/h (4 Bft)
02.03.2008 17:44 6,4 C 95 % 1000,5 hPa 0,0 l/m 22,1 km/h (4 Bft) W-NW 300 0 min 0 W/m 5,7 C -2,1 C 22,1 km/h (4 Bft)
02.03.2008 17:48 6,4 C 95 % 1000,5 hPa 0,0 l/m 26,6 km/h (4 Bft) W-NW 290 0 min 0 W/m 5,7 C -3,5 C 26,6 km/h (4 Bft)
02.03.2008 17:51 6,4 C 95 % 1000,5 hPa 0,0 l/m 17,8 km/h (3 Bft) W-NW 295 0 min 0 W/m 5,7 C -0,5 C 17,8 km/h (3 Bft)
02.03.2008 17:54 6,4 C 95 % 1000,5 hPa 0,0 l/m 24,5 km/h (4 Bft) W-NW 300 0 min 0 W/m 5,7 C -2,9 C 24,5 km/h (4 Bft)
02.03.2008 17:57 6,4 C 95 % 1000,5 hPa 0,0 l/m 19,6 km/h (3 Bft) NW 305 0 min 0 W/m 5,7 C -1,2 C 19,6 km/h (3 Bft)
02.03.2008 18:00 6,4 C 95 % 1000,5 hPa 0,0 l/m 19,7 km/h (3 Bft) NW 305 0 min 0 W/m 5,7 C -1,2 C 19,7 km/h (3 Bft)
02.03.2008 18:02 6,4 C 95 % 1000,5 hPa 0,0 l/m 19,8 km/h (3 Bft) NW 310 0 min 0 W/m 5,7 C -1,3 C 19,8 km/h (3 Bft)
02.03.2008 18:06 6,3 C 95 % 1000,5 hPa 0,0 l/m 26,7 km/h (4 Bft) NW 305 0 min 0 W/m 5,6 C -3,7 C 26,7 km/h (4 Bft)
02.03.2008 18:09 6,3 C 95 % 1000,5 hPa 0,0 l/m 22,6 km/h (4 Bft) NW 315 0 min 0 W/m 5,6 C -2,4 C 22,6 km/h (4 Bft)
02.03.2008 18:12 6,3 C 95 % 1000,5 hPa 0,0 l/m 23,0 km/h (4 Bft) NW 320 0 min 0 W/m 5,6 C -2,6 C 23,0 km/h (4 Bft)
02.03.2008 18:15 6,3 C 96 % 1000,5 hPa 0,0 l/m 17,6 km/h (3 Bft) W-NW 290 0 min 0 W/m 5,7 C -0,5 C 17,6 km/h (3 Bft)
02.03.2008 18:18 6,3 C 96 % 1000,5 hPa 0,0 l/m 17,6 km/h (3 Bft) W-NW 290 0 min 0 W/m 5,7 C -0,5 C 17,6 km/h (3 Bft)
02.03.2008 18:21 6,3 C 96 % 1000,5 hPa 0,0 l/m 25,0 km/h (4 Bft) W-NW 300 0 min 0 W/m 5,7 C -3,2 C 25,0 km/h (4 Bft)
02.03.2008 18:24 6,2 C 96 % 1000,5 hPa 0,0 l/m 18,3 km/h (3 Bft) W-NW 295 0 min 0 W/m 5,6 C -1,0 C 18,3 km/h (3 Bft)
02.03.2008 18:26 6,2 C 95 % 1000,5 hPa 0,0 l/m 23,2 km/h (4 Bft) NW 305 0 min 0 W/m 5,5 C -2,7 C 23,2 km/h (4 Bft)
02.03.2008 18:29 6,2 C 95 % 1000,5 hPa 0,0 l/m 20,7 km/h (4 Bft) NW 310 0 min 0 W/m 5,5 C -1,9 C 20,7 km/h (4 Bft)
02.03.2008 18:33 6,2 C 95 % 1000,5 hPa 0,0 l/m 21,5 km/h (4 Bft) NW 310 0 min 0 W/m 5,5 C -2,2 C 21,5 km/h (4 Bft)
02.03.2008 18:36 6,2 C 95 % 1000,5 hPa 0,0 l/m 22,3 km/h (4 Bft) NW 305 0 min 0 W/m 5,5 C -2,4 C 22,3 km/h (4 Bft)
02.03.2008 18:39 6,2 C 95 % 1000,5 hPa 0,0 l/m 21,4 km/h (4 Bft) NW 305 0 min 0 W/m 5,5 C -2,1 C 21,4 km/h (4 Bft)
02.03.2008 18:42 6,2 C 95 % 1000,5 hPa 0,0 l/m 20,5 km/h (4 Bft) NW 310 0 min 0 W/m 5,5 C -1,8 C 20,5 km/h (4 Bft)
02.03.2008 18:45 6,2 C 95 % 1000,5 hPa 0,0 l/m 21,4 km/h (4 Bft) W-NW 300 0 min 0 W/m 5,5 C -2,1 C 21,4 km/h (4 Bft)
02.03.2008 18:48 6,2 C 95 % 1000,5 hPa 0,0 l/m 20,7 km/h (4 Bft) NW 305 0 min 0 W/m 5,5 C -1,9 C 20,7 km/h (4 Bft)
02.03.2008 18:51 6,2 C 95 % 1000,5 hPa 0,0 l/m 19,3 km/h (3 Bft) NW 315 0 min 0 W/m 5,5 C -1,4 C 19,3 km/h (3 Bft)
02.03.2008 18:54 6,2 C 95 % 1000,5 hPa 0,0 l/m 27,5 km/h (5 Bft) NW 305 0 min 0 W/m 5,5 C -4,0 C 27,5 km/h (5 Bft)
02.03.2008 18:56 6,2 C 95 % 1000,5 hPa 0,0 l/m 25,5 km/h (4 Bft) NW 305 0 min 0 W/m 5,5 C -3,5 C 25,5 km/h (4 Bft)
02.03.2008 19:00 6,2 C 95 % 1000,5 hPa 0,0 l/m 20,0 km/h (4 Bft) NW 305 0 min 0 W/m 5,5 C -1,6 C 20,0 km/h (4 Bft)
02.03.2008 19:03 6,2 C 95 % 1000,5 hPa 0,0 l/m 18,9 km/h (3 Bft) NW 310 0 min 0 W/m 5,5 C -1,2 C 18,9 km/h (3 Bft)
02.03.2008 19:06 6,2 C 95 % 1000,5 hPa 0,0 l/m 26,0 km/h (4 Bft) NW 305 0 min 0 W/m 5,5 C -3,6 C 26,0 km/h (4 Bft)
02.03.2008 19:09 6,2 C 95 % 1000,5 hPa 0,0 l/m 21,8 km/h (4 Bft) W-NW 300 0 min 0 W/m 5,5 C -2,3 C 21,8 km/h (4 Bft)
02.03.2008 19:11 6,2 C 95 % 1000,5 hPa 0,0 l/m 18,0 km/h (3 Bft) W-NW 300 0 min 0 W/m 5,5 C -0,8 C 18,0 km/h (3 Bft)
02.03.2008 19:15 6,2 C 95 % 1000,5 hPa 0,0 l/m 25,1 km/h (4 Bft) NW 305 0 min 0 W/m 5,5 C -3,3 C 25,1 km/h (4 Bft)
02.03.2008 19:18 6,2 C 95 % 1000,5 hPa 0,0 l/m 19,0 km/h (3 Bft) NW 310 0 min 0 W/m 5,5 C -1,2 C 19,0 km/h (3 Bft)
02.03.2008 19:21 6,3 C 95 % 1000,5 hPa 0,0 l/m 19,0 km/h (3 Bft) NW 310 0 min 0 W/m 5,6 C -1,1 C 19,0 km/h (3 Bft)
02.03.2008 19:24 6,3 C 95 % 1000,5 hPa 0,0 l/m 24,0 km/h (4 Bft) NW 315 0 min 0 W/m 5,6 C -2,9 C 24,0 km/h (4 Bft)
02.03.2008 19:27 6,3 C 95 % 1000,5 hPa 0,0 l/m 19,1 km/h (3 Bft) NW 310 0 min 0 W/m 5,6 C -1,1 C 19,1 km/h (3 Bft)
02.03.2008 19:30 6,3 C 95 % 1000,5 hPa 0,0 l/m 28,0 km/h (5 Bft) NW 315 0 min 0 W/m 5,6 C -4,0 C 28,0 km/h (5 Bft)
02.03.2008 19:33 6,3 C 95 % 1001,5 hPa 0,0 l/m 32,3 km/h (5 Bft) NW 315 0 min 0 W/m 5,6 C -5,1 C 32,3 km/h (5 Bft)
02.03.2008 19:36 6,3 C 95 % 1001,5 hPa 0,0 l/m 21,6 km/h (4 Bft) W-NW 295 0 min 0 W/m 5,6 C -2,1 C 21,6 km/h (4 Bft)
02.03.2008 19:38 6,3 C 95 % 1001,5 hPa 0,0 l/m 24,0 km/h (4 Bft) NW 305 0 min 0 W/m 5,6 C -2,9 C 24,0 km/h (4 Bft)
02.03.2008 19:42 6,3 C 95 % 1001,5 hPa 0,0 l/m 25,7 km/h (4 Bft) NW 310 0 min 0 W/m 5,6 C -3,4 C 25,7 km/h (4 Bft)
02.03.2008 19:45 6,3 C 95 % 1001,5 hPa 0,0 l/m 23,6 km/h (4 Bft) W-NW 300 0 min 0 W/m 5,6 C -2,7 C 23,6 km/h (4 Bft)
02.03.2008 19:48 6,4 C 95 % 1001,5 hPa 0,0 l/m 21,0 km/h (4 Bft) NW 305 0 min 0 W/m 5,7 C -1,7 C 21,0 km/h (4 Bft)
02.03.2008 19:51 6,4 C 95 % 1001,5 hPa 0,0 l/m 24,7 km/h (4 Bft) NW 310 0 min 0 W/m 5,7 C -3,0 C 24,7 km/h (4 Bft)
02.03.2008 19:54 6,4 C 95 % 1001,5 hPa 0,0 l/m 24,6 km/h (4 Bft) NW 305 0 min 0 W/m 5,7 C -2,9 C 24,6 km/h (4 Bft)
02.03.2008 19:57 6,4 C 95 % 1001,5 hPa 0,0 l/m 28,5 km/h (5 Bft) NW 305 0 min 0 W/m 5,7 C -4,0 C 28,5 km/h (5 Bft)
02.03.2008 20:00 6,4 C 95 % 1001,5 hPa 0,0 l/m 25,0 km/h (4 Bft) NW 310 0 min 0 W/m 5,7 C -3,0 C 25,0 km/h (4 Bft)
02.03.2008 20:03 6,4 C 95 % 1001,5 hPa 0,0 l/m 27,8 km/h (5 Bft) NW 310 0 min 0 W/m 5,7 C -3,8 C 27,8 km/h (5 Bft)
02.03.2008 20:06 6,3 C 94 % 1001,5 hPa 0,0 l/m 25,1 km/h (4 Bft) NW 310 0 min 0 W/m 5,4 C -3,2 C 25,1 km/h (4 Bft)
02.03.2008 20:09 6,3 C 94 % 1001,5 hPa 0,0 l/m 22,3 km/h (4 Bft) NW 310 0 min 0 W/m 5,4 C -2,3 C 22,3 km/h (4 Bft)
02.03.2008 20:12 6,2 C 94 % 1001,5 hPa 0,0 l/m 22,3 km/h (4 Bft) NW 310 0 min 0 W/m 5,3 C -2,4 C 22,3 km/h (4 Bft)
02.03.2008 20:15 6,1 C 94 % 1001,5 hPa 0,0 l/m 23,3 km/h (4 Bft) W-NW 295 0 min 0 W/m 5,2 C -2,9 C 23,3 km/h (4 Bft)
02.03.2008 20:18 6,1 C 94 % 1001,5 hPa 0,0 l/m 20,8 km/h (4 Bft) NW 305 0 min 0 W/m 5,2 C -2,0 C 20,8 km/h (4 Bft)
02.03.2008 20:20 6,0 C 94 % 1001,5 hPa 0,0 l/m 25,7 km/h (4 Bft) NW 305 0 min 0 W/m 5,1 C -3,8 C 25,7 km/h (4 Bft)
02.03.2008 20:23 6,0 C 94 % 1001,5 hPa 0,0 l/m 20,2 km/h (4 Bft) W-NW 285 0 min 0 W/m 5,1 C -2,0 C 20,2 km/h (4 Bft)
02.03.2008 20:27 6,0 C 94 % 1001,5 hPa 0,0 l/m 22,4 km/h (4 Bft) W-NW 300 0 min 0 W/m 5,1 C -2,7 C 22,4 km/h (4 Bft)
02.03.2008 20:30 6,0 C 94 % 1001,5 hPa 0,0 l/m 20,4 km/h (4 Bft) W-NW 300 0 min 0 W/m 5,1 C -2,0 C 20,4 km/h (4 Bft)
02.03.2008 20:33 5,9 C 94 % 1001,5 hPa 0,0 l/m 19,8 km/h (3 Bft) NW 310 0 min 0 W/m 5,0 C -1,9 C 19,8 km/h (3 Bft)
02.03.2008 20:36 5,9 C 94 % 1001,5 hPa 0,0 l/m 24,7 km/h (4 Bft) NW 305 0 min 0 W/m 5,0 C -3,6 C 24,7 km/h (4 Bft)
02.03.2008 20:39 5,9 C 94 % 1001,5 hPa 0,0 l/m 21,1 km/h (4 Bft) W-NW 300 0 min 0 W/m 5,0 C -2,4 C 21,1 km/h (4 Bft)
02.03.2008 20:42 5,8 C 94 % 1001,5 hPa 0,0 l/m 26,3 km/h (4 Bft) W-NW 300 0 min 0 W/m 4,9 C -4,2 C 26,3 km/h (4 Bft)
02.03.2008 20:45 5,8 C 94 % 1001,5 hPa 0,0 l/m 26,0 km/h (4 Bft) NW 315 0 min 0 W/m 4,9 C -4,2 C 26,0 km/h (4 Bft)
02.03.2008 20:47 5,8 C 94 % 1001,5 hPa 0,0 l/m 24,2 km/h (4 Bft) NW 305 0 min 0 W/m 4,9 C -3,6 C 24,2 km/h (4 Bft)
02.03.2008 20:50 5,8 C 94 % 1001,5 hPa 0,0 l/m 19,1 km/h (3 Bft) W-NW 300 0 min 0 W/m 4,9 C -1,8 C 19,1 km/h (3 Bft)
02.03.2008 20:54 5,7 C 94 % 1001,5 hPa 0,0 l/m 21,4 km/h (4 Bft) W-NW 295 0 min 0 W/m 4,8 C -2,8 C 21,4 km/h (4 Bft)
02.03.2008 20:57 5,7 C 94 % 1001,5 hPa 0,0 l/m 15,5 km/h (3 Bft) W-NW 290 0 min 0 W/m 4,8 C -0,3 C 15,5 km/h (3 Bft)
02.03.2008 21:00 5,7 C 93 % 1001,5 hPa 0,0 l/m 22,3 km/h (4 Bft) NW 305 0 min 0 W/m 4,7 C -3,1 C 22,3 km/h (4 Bft)
02.03.2008 21:02 5,7 C 93 % 1001,5 hPa 0,0 l/m 18,5 km/h (3 Bft) NW 305 0 min 0 W/m 4,7 C -1,7 C 18,5 km/h (3 Bft)
02.03.2008 21:05 5,7 C 93 % 1001,5 hPa 0,0 l/m 21,8 km/h (4 Bft) NW 310 0 min 0 W/m 4,7 C -2,9 C 21,8 km/h (4 Bft)
02.03.2008 21:09 5,7 C 93 % 1001,5 hPa 0,0 l/m 21,6 km/h (4 Bft) W-NW 300 0 min 0 W/m 4,7 C -2,9 C 21,6 km/h (4 Bft)
02.03.2008 21:12 5,7 C 93 % 1001,5 hPa 0,0 l/m 21,4 km/h (4 Bft) W-NW 300 0 min 0 W/m 4,7 C -2,8 C 21,4 km/h (4 Bft)
02.03.2008 21:15 5,7 C 93 % 1001,5 hPa 0,0 l/m 21,2 km/h (4 Bft) NW 305 0 min 0 W/m 4,7 C -2,7 C 21,2 km/h (4 Bft)
02.03.2008 21:18 5,7 C 93 % 1001,5 hPa 0,0 l/m 18,9 km/h (3 Bft) NW 305 0 min 0 W/m 4,7 C -1,8 C 18,9 km/h (3 Bft)
02.03.2008 21:21 5,7 C 93 % 1001,5 hPa 0,0 l/m 17,0 km/h (3 Bft) W-NW 290 0 min 0 W/m 4,7 C -1,0 C 17,0 km/h (3 Bft)
02.03.2008 21:24 5,7 C 93 % 1001,5 hPa 0,0 l/m 16,1 km/h (3 Bft) W-NW 300 0 min 0 W/m 4,7 C -0,6 C 16,1 km/h (3 Bft)
02.03.2008 21:26 5,7 C 93 % 1001,5 hPa 0,0 l/m 19,1 km/h (3 Bft) W-NW 300 0 min 0 W/m 4,7 C -1,9 C 19,1 km/h (3 Bft)
02.03.2008 21:29 5,7 C 93 % 1001,5 hPa 0,0 l/m 18,1 km/h (3 Bft) W-NW 300 0 min 0 W/m 4,7 C -1,5 C 18,1 km/h (3 Bft)
02.03.2008 21:33 5,7 C 93 % 1001,5 hPa 0,0 l/m 20,9 km/h (4 Bft) W-NW 300 0 min 0 W/m 4,7 C -2,6 C 20,9 km/h (4 Bft)
02.03.2008 21:36 5,6 C 93 % 1001,5 hPa 0,0 l/m 20,5 km/h (4 Bft) NW 305 0 min 0 W/m 4,6 C -2,6 C 20,5 km/h (4 Bft)
02.03.2008 21:39 5,6 C 93 % 1001,5 hPa 0,0 l/m 23,6 km/h (4 Bft) W-NW 295 0 min 0 W/m 4,6 C -3,7 C 23,6 km/h (4 Bft)
02.03.2008 21:42 5,6 C 93 % 1001,5 hPa 0,0 l/m 21,6 km/h (4 Bft) NW 305 0 min 0 W/m 4,6 C -3,0 C 21,6 km/h (4 Bft)
02.03.2008 21:45 5,6 C 93 % 1001,5 hPa 0,0 l/m 15,2 km/h (3 Bft) W-NW 300 0 min 0 W/m 4,6 C -0,3 C 15,2 km/h (3 Bft)
02.03.2008 21:48 5,6 C 93 % 1001,5 hPa 0,0 l/m 23,1 km/h (4 Bft) NW 305 0 min 0 W/m 4,6 C -3,5 C 23,1 km/h (4 Bft)
02.03.2008 21:51 5,6 C 93 % 1001,5 hPa 0,0 l/m 16,8 km/h (3 Bft) W-NW 295 0 min 0 W/m 4,6 C -1,1 C 16,8 km/h (3 Bft)
02.03.2008 21:53 5,6 C 93 % 1001,5 hPa 0,0 l/m 11,4 km/h (2 Bft) W-NW 295 0 min 0 W/m 4,6 C 1,8 C 11,4 km/h (2 Bft)
02.03.2008 21:57 5,6 C 93 % 1001,5 hPa 0,0 l/m 21,4 km/h (4 Bft) W-NW 295 0 min 0 W/m 4,6 C -2,9 C 21,4 km/h (4 Bft)
02.03.2008 22:00 5,6 C 93 % 1001,5 hPa 0,0 l/m 19,5 km/h (3 Bft) W-NW 300 0 min 0 W/m 4,6 C -2,2 C 19,5 km/h (3 Bft)
02.03.2008 22:03 5,6 C 93 % 1001,5 hPa 0,0 l/m 19,1 km/h (3 Bft) W-NW 295 0 min 0 W/m 4,6 C -2,0 C 19,1 km/h (3 Bft)
02.03.2008 22:05 5,6 C 93 % 1001,5 hPa 0,0 l/m 19,4 km/h (3 Bft) W-NW 295 0 min 0 W/m 4,6 C -2,2 C 19,4 km/h (3 Bft)
02.03.2008 22:08 5,7 C 93 % 1001,5 hPa 0,0 l/m 22,4 km/h (4 Bft) W-NW 300 0 min 0 W/m 4,7 C -3,1 C 22,4 km/h (4 Bft)
02.03.2008 22:12 5,7 C 93 % 1001,5 hPa 0,0 l/m 22,4 km/h (4 Bft) W-NW 300 0 min 0 W/m 4,7 C -3,1 C 22,4 km/h (4 Bft)
02.03.2008 22:15 5,7 C 93 % 1001,5 hPa 0,0 l/m 20,1 km/h (4 Bft) W-NW 300 0 min 0 W/m 4,7 C -2,3 C 20,1 km/h (4 Bft)
02.03.2008 22:18 5,8 C 93 % 1001,5 hPa 0,0 l/m 23,6 km/h (4 Bft) W-NW 295 0 min 0 W/m 4,8 C -3,4 C 23,6 km/h (4 Bft)
02.03.2008 22:21 5,8 C 93 % 1002,5 hPa 0,0 l/m 26,2 km/h (4 Bft) NW 305 0 min 0 W/m 4,8 C -4,2 C 26,2 km/h (4 Bft)
02.03.2008 22:24 5,8 C 92 % 1001,5 hPa 0,0 l/m 22,5 km/h (4 Bft) W-NW 300 0 min 0 W/m 4,6 C -3,0 C 22,5 km/h (4 Bft)
02.03.2008 22:27 5,8 C 92 % 1001,5 hPa 0,0 l/m 22,0 km/h (4 Bft) W-NW 300 0 min 0 W/m 4,6 C -2,9 C 22,0 km/h (4 Bft)
02.03.2008 22:29 5,8 C 92 % 1001,5 hPa 0,0 l/m 28,8 km/h (5 Bft) NW 310 0 min 0 W/m 4,6 C -4,9 C 28,8 km/h (5 Bft)
02.03.2008 22:32 5,8 C 92 % 1001,5 hPa 0,0 l/m 21,1 km/h (4 Bft) W-NW 300 0 min 0 W/m 4,6 C -2,6 C 21,1 km/h (4 Bft)
02.03.2008 22:36 5,8 C 92 % 1002,5 hPa 0,0 l/m 26,9 km/h (4 Bft) NW 305 0 min 0 W/m 4,6 C -4,4 C 26,9 km/h (4 Bft)
02.03.2008 22:39 5,8 C 92 % 1002,5 hPa 0,0 l/m 21,8 km/h (4 Bft) W-NW 300 0 min 0 W/m 4,6 C -2,8 C 21,8 km/h (4 Bft)
02.03.2008 22:42 5,8 C 92 % 1002,5 hPa 0,0 l/m 20,3 km/h (4 Bft) W-NW 295 0 min 0 W/m 4,6 C -2,3 C 20,3 km/h (4 Bft)
02.03.2008 22:45 5,8 C 92 % 1002,5 hPa 0,0 l/m 18,4 km/h (3 Bft) W-NW 285 0 min 0 W/m 4,6 C -1,5 C 18,4 km/h (3 Bft)
02.03.2008 22:48 5,8 C 92 % 1002,5 hPa 0,0 l/m 20,2 km/h (4 Bft) W-NW 300 0 min 0 W/m 4,6 C -2,2 C 20,2 km/h (4 Bft)
02.03.2008 22:51 5,8 C 92 % 1002,5 hPa 0,0 l/m 26,5 km/h (4 Bft) NW 305 0 min 0 W/m 4,6 C -4,3 C 26,5 km/h (4 Bft)
02.03.2008 22:53 5,8 C 92 % 1001,5 hPa 0,0 l/m 19,8 km/h (3 Bft) W-NW 300 0 min 0 W/m 4,6 C -2,1 C 19,8 km/h (3 Bft)
02.03.2008 22:56 5,8 C 92 % 1002,5 hPa 0,0 l/m 20,3 km/h (4 Bft) W-NW 300 0 min 0 W/m 4,6 C -2,3 C 20,3 km/h (4 Bft)
02.03.2008 23:00 5,7 C 92 % 1001,5 hPa 0,0 l/m 20,5 km/h (4 Bft) W-NW 295 0 min 0 W/m 4,5 C -2,5 C 20,5 km/h (4 Bft)
02.03.2008 23:03 5,7 C 92 % 1001,5 hPa 0,0 l/m 20,3 km/h (4 Bft) W-NW 300 0 min 0 W/m 4,5 C -2,4 C 20,3 km/h (4 Bft)
02.03.2008 23:06 5,7 C 92 % 1001,5 hPa 0,0 l/m 25,2 km/h (4 Bft) NW 305 0 min 0 W/m 4,5 C -4,1 C 25,2 km/h (4 Bft)
02.03.2008 23:08 5,7 C 92 % 1001,5 hPa 0,0 l/m 20,5 km/h (4 Bft) NW 305 0 min 0 W/m 4,5 C -2,5 C 20,5 km/h (4 Bft)
02.03.2008 23:12 5,8 C 92 % 1001,5 hPa 0,0 l/m 24,3 km/h (4 Bft) NW 305 0 min 0 W/m 4,6 C -3,6 C 24,3 km/h (4 Bft)
02.03.2008 23:15 5,8 C 92 % 1002,5 hPa 0,0 l/m 19,3 km/h (3 Bft) W-NW 295 0 min 0 W/m 4,6 C -1,9 C 19,3 km/h (3 Bft)
02.03.2008 23:18 5,7 C 92 % 1001,5 hPa 0,0 l/m 21,9 km/h (4 Bft) W-NW 295 0 min 0 W/m 4,5 C -3,0 C 21,9 km/h (4 Bft)
02.03.2008 23:21 5,7 C 92 % 1001,5 hPa 0,0 l/m 22,0 km/h (4 Bft) W-NW 295 0 min 0 W/m 4,5 C -3,0 C 22,0 km/h (4 Bft)
02.03.2008 23:24 5,7 C 92 % 1001,5 hPa 0,0 l/m 21,8 km/h (4 Bft) W-NW 285 0 min 0 W/m 4,5 C -2,9 C 21,8 km/h (4 Bft)
02.03.2008 23:27 5,7 C 92 % 1001,5 hPa 0,0 l/m 17,7 km/h (3 Bft) W-NW 290 0 min 0 W/m 4,5 C -1,3 C 17,7 km/h (3 Bft)
02.03.2008 23:29 5,7 C 92 % 1001,5 hPa 0,0 l/m 20,0 km/h (4 Bft) W 280 0 min 0 W/m 4,5 C -2,3 C 20,0 km/h (4 Bft)
02.03.2008 23:32 5,7 C 92 % 1001,5 hPa 0,0 l/m 20,9 km/h (4 Bft) W-NW 295 0 min 0 W/m 4,5 C -2,6 C 20,9 km/h (4 Bft)
02.03.2008 23:36 5,7 C 92 % 1001,5 hPa 0,0 l/m 23,8 km/h (4 Bft) W-NW 290 0 min 0 W/m 4,5 C -3,6 C 23,8 km/h (4 Bft)
02.03.2008 23:39 5,7 C 92 % 1001,5 hPa 0,0 l/m 21,0 km/h (4 Bft) W-NW 295 0 min 0 W/m 4,5 C -2,6 C 21,0 km/h (4 Bft)
02.03.2008 23:42 5,7 C 92 % 1001,5 hPa 0,0 l/m 20,1 km/h (4 Bft) W-NW 285 0 min 0 W/m 4,5 C -2,3 C 20,1 km/h (4 Bft)
02.03.2008 23:45 5,6 C 93 % 1001,5 hPa 0,0 l/m 20,1 km/h (4 Bft) W-NW 285 0 min 0 W/m 4,6 C -2,4 C 20,1 km/h (4 Bft)
02.03.2008 23:48 5,6 C 93 % 1001,5 hPa 0,0 l/m 22,1 km/h (4 Bft) W-NW 285 0 min 0 W/m 4,6 C -3,2 C 22,1 km/h (4 Bft)
02.03.2008 23:51 5,6 C 93 % 1001,5 hPa 0,0 l/m 22,4 km/h (4 Bft) W-NW 295 0 min 0 W/m 4,6 C -3,3 C 22,4 km/h (4 Bft)
02.03.2008 23:53 5,6 C 93 % 1001,5 hPa 0,0 l/m 22,4 km/h (4 Bft) W-NW 295 0 min 0 W/m 4,6 C -3,3 C 22,4 km/h (4 Bft)
02.03.2008 23:56 5,6 C 93 % 1001,5 hPa 0,0 l/m 22,9 km/h (4 Bft) W-NW 300 0 min 0 W/m 4,6 C -3,4 C 22,9 km/h (4 Bft)
_ Min-Zeit 21:36 12:03 05:48 - 21:53 - - - - 00:00 00:27 21:53
Minimum _ 5,6 C 82 % 988,5 hPa - 11,4 km/h (2 Bft) - - - - 3,3 C -7,6 C 11,4 km/h (2 Bft)
_ Max-Zeit 12:20 05:39 22:21 03:00 07:12 - - 00:00 00:00 06:32 21:53 07:12
Maximum _ 9,2 C 99 % 1002,5 hPa 0,3 l/m 52,5 km/h
NW (7 Bft)
- - 0 min 0 W/m 7,2 C 1,8 C 52,5 km/h
NW (7 Bft)
Durchschnitt _ 6,9 C 91 % 996,0 hPa #5,7 l/m 31,5 km/h (5 Bft) NW - #0 min. 0 W/m 5,6 C -3,7 C 31,5 km/h (5 Bft)
copyright by Holger Just